<?xml version="1.0" encoding="UTF-8" standalone="no" ?>
<gpx xmlns="http://www.topografix.com/GPX/1/1" xmlns:xsi="http://www.w3.org/2001/XMLSchema-instance" xsi:schemaLocation="http://www.topografix.com/GPX/1/1 http://www.topografix.com/GPX/1/1/gpx.xsd" version="1.1" creator="VisuGPX - https://www.visugpx.com">
  <metadata>
    <name>Caen-Tourville-Evrecy</name>
    <desc><![CDATA[Certain passages en sous bois peu praticables en VTT mais globalement parcours sympa]]></desc>
  </metadata>
  <trk>
    <name><![CDATA[Entre Orne et Odon]]></name>
    <trkseg>
      <trkpt lat="49.19355" lon="-0.35034">
        <ele>33</ele>
        <time>2018-05-31T15:49:05Z</time>
      </trkpt>
      <trkpt lat="49.19356" lon="-0.34998">
        <ele>33</ele>
        <time>2018-05-31T15:49:10Z</time>
      </trkpt>
      <trkpt lat="49.19359" lon="-0.34923">
        <ele>33</ele>
        <time>2018-05-31T15:49:20Z</time>
      </trkpt>
      <trkpt lat="49.19359" lon="-0.34885">
        <ele>33</ele>
        <time>2018-05-31T15:49:25Z</time>
      </trkpt>
      <trkpt lat="49.19361" lon="-0.34807">
        <ele>32</ele>
        <time>2018-05-31T15:49:40Z</time>
      </trkpt>
      <trkpt lat="49.19354" lon="-0.34781">
        <ele>32</ele>
        <time>2018-05-31T15:49:45Z</time>
      </trkpt>
      <trkpt lat="49.19265" lon="-0.3479">
        <ele>31</ele>
        <time>2018-05-31T15:50:00Z</time>
      </trkpt>
      <trkpt lat="49.19231" lon="-0.3479">
        <ele>29</ele>
        <time>2018-05-31T15:50:05Z</time>
      </trkpt>
      <trkpt lat="49.19159" lon="-0.3477">
        <ele>28</ele>
        <time>2018-05-31T15:50:15Z</time>
      </trkpt>
      <trkpt lat="49.19124" lon="-0.34753">
        <ele>28</ele>
        <time>2018-05-31T15:50:20Z</time>
      </trkpt>
      <trkpt lat="49.19092" lon="-0.34726">
        <ele>28</ele>
        <time>2018-05-31T15:50:25Z</time>
      </trkpt>
      <trkpt lat="49.19035" lon="-0.3466">
        <ele>27</ele>
        <time>2018-05-31T15:50:35Z</time>
      </trkpt>
      <trkpt lat="49.19004" lon="-0.34625">
        <ele>25</ele>
        <time>2018-05-31T15:50:40Z</time>
      </trkpt>
      <trkpt lat="49.18974" lon="-0.34608">
        <ele>25</ele>
        <time>2018-05-31T15:50:45Z</time>
      </trkpt>
      <trkpt lat="49.1881" lon="-0.34552">
        <ele>24</ele>
        <time>2018-05-31T15:51:10Z</time>
      </trkpt>
      <trkpt lat="49.1871" lon="-0.3449">
        <ele>22</ele>
        <time>2018-05-31T15:51:25Z</time>
      </trkpt>
      <trkpt lat="49.18674" lon="-0.3448">
        <ele>21</ele>
        <time>2018-05-31T15:51:30Z</time>
      </trkpt>
      <trkpt lat="49.18594" lon="-0.34465">
        <ele>15</ele>
        <time>2018-05-31T15:51:45Z</time>
      </trkpt>
      <trkpt lat="49.18555" lon="-0.34491">
        <ele>9</ele>
        <time>2018-05-31T15:51:55Z</time>
      </trkpt>
      <trkpt lat="49.18521" lon="-0.345">
        <ele>4</ele>
        <time>2018-05-31T15:52:05Z</time>
      </trkpt>
      <trkpt lat="49.18456" lon="-0.34508">
        <ele>3</ele>
        <time>2018-05-31T15:52:20Z</time>
      </trkpt>
      <trkpt lat="49.18454" lon="-0.3452">
        <ele>3</ele>
        <time>2018-05-31T15:52:25Z</time>
      </trkpt>
      <trkpt lat="49.18453" lon="-0.34561">
        <ele>4</ele>
        <time>2018-05-31T15:52:35Z</time>
      </trkpt>
      <trkpt lat="49.18458" lon="-0.34764">
        <ele>4</ele>
        <time>2018-05-31T15:52:55Z</time>
      </trkpt>
      <trkpt lat="49.1846" lon="-0.34787">
        <ele>5</ele>
        <time>2018-05-31T15:53:00Z</time>
      </trkpt>
      <trkpt lat="49.18457" lon="-0.34851">
        <ele>4</ele>
        <time>2018-05-31T15:53:10Z</time>
      </trkpt>
      <trkpt lat="49.18456" lon="-0.34943">
        <ele>4</ele>
        <time>2018-05-31T15:53:20Z</time>
      </trkpt>
      <trkpt lat="49.1845" lon="-0.34993">
        <ele>4</ele>
        <time>2018-05-31T15:53:25Z</time>
      </trkpt>
      <trkpt lat="49.18428" lon="-0.35088">
        <ele>5</ele>
        <time>2018-05-31T15:53:35Z</time>
      </trkpt>
      <trkpt lat="49.18391" lon="-0.35169">
        <ele>4</ele>
        <time>2018-05-31T15:53:45Z</time>
      </trkpt>
      <trkpt lat="49.18367" lon="-0.35202">
        <ele>4</ele>
        <time>2018-05-31T15:53:50Z</time>
      </trkpt>
      <trkpt lat="49.18319" lon="-0.35258">
        <ele>4</ele>
        <time>2018-05-31T15:54:00Z</time>
      </trkpt>
      <trkpt lat="49.18308" lon="-0.35255">
        <ele>4</ele>
        <time>2018-05-31T15:54:05Z</time>
      </trkpt>
      <trkpt lat="49.18285" lon="-0.35202">
        <ele>4</ele>
        <time>2018-05-31T15:54:15Z</time>
      </trkpt>
      <trkpt lat="49.18244" lon="-0.35177">
        <ele>4</ele>
        <time>2018-05-31T15:54:25Z</time>
      </trkpt>
      <trkpt lat="49.18231" lon="-0.35144">
        <ele>4</ele>
        <time>2018-05-31T15:54:30Z</time>
      </trkpt>
      <trkpt lat="49.18164" lon="-0.35021">
        <ele>4</ele>
        <time>2018-05-31T15:54:50Z</time>
      </trkpt>
      <trkpt lat="49.18104" lon="-0.34935">
        <ele>4</ele>
        <time>2018-05-31T15:55:05Z</time>
      </trkpt>
      <trkpt lat="49.18063" lon="-0.34976">
        <ele>5</ele>
        <time>2018-05-31T15:55:15Z</time>
      </trkpt>
      <trkpt lat="49.18027" lon="-0.35028">
        <ele>5</ele>
        <time>2018-05-31T15:55:30Z</time>
      </trkpt>
      <trkpt lat="49.17972" lon="-0.35018">
        <ele>5</ele>
        <time>2018-05-31T15:55:45Z</time>
      </trkpt>
      <trkpt lat="49.17954" lon="-0.35037">
        <ele>4</ele>
        <time>2018-05-31T15:55:50Z</time>
      </trkpt>
      <trkpt lat="49.17924" lon="-0.351">
        <ele>4</ele>
        <time>2018-05-31T15:56:00Z</time>
      </trkpt>
      <trkpt lat="49.17879" lon="-0.35201">
        <ele>3</ele>
        <time>2018-05-31T15:56:15Z</time>
      </trkpt>
      <trkpt lat="49.17833" lon="-0.35302">
        <ele>3</ele>
        <time>2018-05-31T15:56:30Z</time>
      </trkpt>
      <trkpt lat="49.17819" lon="-0.35325">
        <ele>5</ele>
        <time>2018-05-31T15:56:35Z</time>
      </trkpt>
      <trkpt lat="49.17811" lon="-0.35351">
        <ele>5</ele>
        <time>2018-05-31T15:56:40Z</time>
      </trkpt>
      <trkpt lat="49.17753" lon="-0.35478">
        <ele>3</ele>
        <time>2018-05-31T15:57:00Z</time>
      </trkpt>
      <trkpt lat="49.17729" lon="-0.3552">
        <ele>6</ele>
        <time>2018-05-31T15:57:10Z</time>
      </trkpt>
      <trkpt lat="49.1773" lon="-0.35521">
        <ele>6</ele>
        <time>2018-05-31T15:57:15Z</time>
      </trkpt>
      <trkpt lat="49.17716" lon="-0.35563">
        <ele>5</ele>
        <time>2018-05-31T15:57:25Z</time>
      </trkpt>
      <trkpt lat="49.17609" lon="-0.35797">
        <ele>8</ele>
        <time>2018-05-31T15:58:00Z</time>
      </trkpt>
      <trkpt lat="49.17595" lon="-0.35836">
        <ele>7</ele>
        <time>2018-05-31T15:58:05Z</time>
      </trkpt>
      <trkpt lat="49.17553" lon="-0.35909">
        <ele>5</ele>
        <time>2018-05-31T15:58:15Z</time>
      </trkpt>
      <trkpt lat="49.17508" lon="-0.35986">
        <ele>4</ele>
        <time>2018-05-31T15:58:25Z</time>
      </trkpt>
      <trkpt lat="49.17362" lon="-0.36213">
        <ele>4</ele>
        <time>2018-05-31T15:58:55Z</time>
      </trkpt>
      <trkpt lat="49.17318" lon="-0.3628">
        <ele>5</ele>
        <time>2018-05-31T15:59:05Z</time>
      </trkpt>
      <trkpt lat="49.17274" lon="-0.36351">
        <ele>5</ele>
        <time>2018-05-31T15:59:15Z</time>
      </trkpt>
      <trkpt lat="49.17252" lon="-0.36384">
        <ele>5</ele>
        <time>2018-05-31T15:59:20Z</time>
      </trkpt>
      <trkpt lat="49.17213" lon="-0.36448">
        <ele>5</ele>
        <time>2018-05-31T15:59:30Z</time>
      </trkpt>
      <trkpt lat="49.17199" lon="-0.36476">
        <ele>5</ele>
        <time>2018-05-31T15:59:35Z</time>
      </trkpt>
      <trkpt lat="49.17191" lon="-0.36495">
        <ele>5</ele>
        <time>2018-05-31T15:59:40Z</time>
      </trkpt>
      <trkpt lat="49.17186" lon="-0.3652">
        <ele>5</ele>
        <time>2018-05-31T15:59:45Z</time>
      </trkpt>
      <trkpt lat="49.17178" lon="-0.36584">
        <ele>4</ele>
        <time>2018-05-31T15:59:55Z</time>
      </trkpt>
      <trkpt lat="49.17173" lon="-0.36608">
        <ele>3</ele>
        <time>2018-05-31T16:00:00Z</time>
      </trkpt>
      <trkpt lat="49.17143" lon="-0.36612">
        <ele>4</ele>
        <time>2018-05-31T16:00:10Z</time>
      </trkpt>
      <trkpt lat="49.17126" lon="-0.3662">
        <ele>4</ele>
        <time>2018-05-31T16:00:15Z</time>
      </trkpt>
      <trkpt lat="49.17095" lon="-0.36683">
        <ele>4</ele>
        <time>2018-05-31T16:00:25Z</time>
      </trkpt>
      <trkpt lat="49.17003" lon="-0.36732">
        <ele>3</ele>
        <time>2018-05-31T16:00:50Z</time>
      </trkpt>
      <trkpt lat="49.16994" lon="-0.36759">
        <ele>3</ele>
        <time>2018-05-31T16:00:55Z</time>
      </trkpt>
      <trkpt lat="49.16976" lon="-0.36829">
        <ele>5</ele>
        <time>2018-05-31T16:01:10Z</time>
      </trkpt>
      <trkpt lat="49.16996" lon="-0.3675">
        <ele>4</ele>
        <time>2018-05-31T16:01:25Z</time>
      </trkpt>
      <trkpt lat="49.1701" lon="-0.36711">
        <ele>3</ele>
        <time>2018-05-31T16:01:35Z</time>
      </trkpt>
      <trkpt lat="49.16979" lon="-0.36689">
        <ele>6</ele>
        <time>2018-05-31T16:01:45Z</time>
      </trkpt>
      <trkpt lat="49.16956" lon="-0.36706">
        <ele>4</ele>
        <time>2018-05-31T16:01:50Z</time>
      </trkpt>
      <trkpt lat="49.16935" lon="-0.36733">
        <ele>3</ele>
        <time>2018-05-31T16:01:55Z</time>
      </trkpt>
      <trkpt lat="49.16867" lon="-0.36826">
        <ele>3</ele>
        <time>2018-05-31T16:02:10Z</time>
      </trkpt>
      <trkpt lat="49.16835" lon="-0.36874">
        <ele>3</ele>
        <time>2018-05-31T16:02:20Z</time>
      </trkpt>
      <trkpt lat="49.16839" lon="-0.36884">
        <ele>2</ele>
        <time>2018-05-31T16:02:25Z</time>
      </trkpt>
      <trkpt lat="49.16856" lon="-0.36916">
        <ele>2</ele>
        <time>2018-05-31T16:02:40Z</time>
      </trkpt>
      <trkpt lat="49.16837" lon="-0.36876">
        <ele>3</ele>
        <time>2018-05-31T16:02:55Z</time>
      </trkpt>
      <trkpt lat="49.16838" lon="-0.36864">
        <ele>3</ele>
        <time>2018-05-31T16:03:00Z</time>
      </trkpt>
      <trkpt lat="49.16853" lon="-0.36842">
        <ele>2</ele>
        <time>2018-05-31T16:03:05Z</time>
      </trkpt>
      <trkpt lat="49.16936" lon="-0.36729">
        <ele>3</ele>
        <time>2018-05-31T16:03:25Z</time>
      </trkpt>
      <trkpt lat="49.16961" lon="-0.36693">
        <ele>4</ele>
        <time>2018-05-31T16:03:35Z</time>
      </trkpt>
      <trkpt lat="49.16954" lon="-0.36688">
        <ele>4</ele>
        <time>2018-05-31T16:03:45Z</time>
      </trkpt>
      <trkpt lat="49.16914" lon="-0.36675">
        <ele>4</ele>
        <time>2018-05-31T16:03:55Z</time>
      </trkpt>
      <trkpt lat="49.16865" lon="-0.36673">
        <ele>4</ele>
        <time>2018-05-31T16:04:05Z</time>
      </trkpt>
      <trkpt lat="49.16814" lon="-0.36701">
        <ele>3</ele>
        <time>2018-05-31T16:04:15Z</time>
      </trkpt>
      <trkpt lat="49.16794" lon="-0.36727">
        <ele>3</ele>
        <time>2018-05-31T16:04:20Z</time>
      </trkpt>
      <trkpt lat="49.1677" lon="-0.36733">
        <ele>4</ele>
        <time>2018-05-31T16:04:25Z</time>
      </trkpt>
      <trkpt lat="49.1662" lon="-0.36821">
        <ele>6</ele>
        <time>2018-05-31T16:04:55Z</time>
      </trkpt>
      <trkpt lat="49.16591" lon="-0.36829">
        <ele>8</ele>
        <time>2018-05-31T16:05:00Z</time>
      </trkpt>
      <trkpt lat="49.16501" lon="-0.36849">
        <ele>7</ele>
        <time>2018-05-31T16:05:15Z</time>
      </trkpt>
      <trkpt lat="49.1647" lon="-0.36858">
        <ele>5</ele>
        <time>2018-05-31T16:05:20Z</time>
      </trkpt>
      <trkpt lat="49.16355" lon="-0.369">
        <ele>7</ele>
        <time>2018-05-31T16:05:40Z</time>
      </trkpt>
      <trkpt lat="49.16327" lon="-0.36916">
        <ele>4</ele>
        <time>2018-05-31T16:05:45Z</time>
      </trkpt>
      <trkpt lat="49.16269" lon="-0.36953">
        <ele>8</ele>
        <time>2018-05-31T16:05:55Z</time>
      </trkpt>
      <trkpt lat="49.16215" lon="-0.36997">
        <ele>5</ele>
        <time>2018-05-31T16:06:05Z</time>
      </trkpt>
      <trkpt lat="49.16197" lon="-0.37026">
        <ele>5</ele>
        <time>2018-05-31T16:06:10Z</time>
      </trkpt>
      <trkpt lat="49.16201" lon="-0.37146">
        <ele>5</ele>
        <time>2018-05-31T16:06:25Z</time>
      </trkpt>
      <trkpt lat="49.16211" lon="-0.37221">
        <ele>5</ele>
        <time>2018-05-31T16:06:35Z</time>
      </trkpt>
      <trkpt lat="49.16138" lon="-0.37272">
        <ele>4</ele>
        <time>2018-05-31T16:06:50Z</time>
      </trkpt>
      <trkpt lat="49.16086" lon="-0.37305">
        <ele>4</ele>
        <time>2018-05-31T16:07:00Z</time>
      </trkpt>
      <trkpt lat="49.16085" lon="-0.37339">
        <ele>3</ele>
        <time>2018-05-31T16:07:05Z</time>
      </trkpt>
      <trkpt lat="49.16095" lon="-0.37379">
        <ele>3</ele>
        <time>2018-05-31T16:07:10Z</time>
      </trkpt>
      <trkpt lat="49.16132" lon="-0.3755">
        <ele>3</ele>
        <time>2018-05-31T16:07:30Z</time>
      </trkpt>
      <trkpt lat="49.16157" lon="-0.37663">
        <ele>3</ele>
        <time>2018-05-31T16:07:45Z</time>
      </trkpt>
      <trkpt lat="49.16151" lon="-0.37699">
        <ele>4</ele>
        <time>2018-05-31T16:07:50Z</time>
      </trkpt>
      <trkpt lat="49.15993" lon="-0.37796">
        <ele>4</ele>
        <time>2018-05-31T16:08:20Z</time>
      </trkpt>
      <trkpt lat="49.15968" lon="-0.37816">
        <ele>4</ele>
        <time>2018-05-31T16:08:25Z</time>
      </trkpt>
      <trkpt lat="49.15864" lon="-0.37878">
        <ele>5</ele>
        <time>2018-05-31T16:08:45Z</time>
      </trkpt>
      <trkpt lat="49.15814" lon="-0.37914">
        <ele>5</ele>
        <time>2018-05-31T16:08:55Z</time>
      </trkpt>
      <trkpt lat="49.15788" lon="-0.37923">
        <ele>6</ele>
        <time>2018-05-31T16:09:00Z</time>
      </trkpt>
      <trkpt lat="49.15738" lon="-0.37949">
        <ele>5</ele>
        <time>2018-05-31T16:09:10Z</time>
      </trkpt>
      <trkpt lat="49.15691" lon="-0.38017">
        <ele>4</ele>
        <time>2018-05-31T16:09:20Z</time>
      </trkpt>
      <trkpt lat="49.1566" lon="-0.38032">
        <ele>3</ele>
        <time>2018-05-31T16:09:25Z</time>
      </trkpt>
      <trkpt lat="49.15591" lon="-0.38012">
        <ele>3</ele>
        <time>2018-05-31T16:09:35Z</time>
      </trkpt>
      <trkpt lat="49.15528" lon="-0.3799">
        <ele>2</ele>
        <time>2018-05-31T16:09:45Z</time>
      </trkpt>
      <trkpt lat="49.15499" lon="-0.37986">
        <ele>2</ele>
        <time>2018-05-31T16:09:50Z</time>
      </trkpt>
      <trkpt lat="49.15448" lon="-0.38102">
        <ele>2</ele>
        <time>2018-05-31T16:10:05Z</time>
      </trkpt>
      <trkpt lat="49.15429" lon="-0.38138">
        <ele>2</ele>
        <time>2018-05-31T16:10:10Z</time>
      </trkpt>
      <trkpt lat="49.15406" lon="-0.38165">
        <ele>3</ele>
        <time>2018-05-31T16:10:15Z</time>
      </trkpt>
      <trkpt lat="49.15358" lon="-0.38203">
        <ele>7</ele>
        <time>2018-05-31T16:10:25Z</time>
      </trkpt>
      <trkpt lat="49.15259" lon="-0.3826">
        <ele>9</ele>
        <time>2018-05-31T16:10:45Z</time>
      </trkpt>
      <trkpt lat="49.15209" lon="-0.38295">
        <ele>9</ele>
        <time>2018-05-31T16:10:55Z</time>
      </trkpt>
      <trkpt lat="49.15157" lon="-0.38341">
        <ele>7</ele>
        <time>2018-05-31T16:11:05Z</time>
      </trkpt>
      <trkpt lat="49.15066" lon="-0.38401">
        <ele>4</ele>
        <time>2018-05-31T16:11:20Z</time>
      </trkpt>
      <trkpt lat="49.15072" lon="-0.38403">
        <ele>4</ele>
        <time>2018-05-31T16:11:25Z</time>
      </trkpt>
      <trkpt lat="49.1509" lon="-0.38392">
        <ele>4</ele>
        <time>2018-05-31T16:11:30Z</time>
      </trkpt>
      <trkpt lat="49.15137" lon="-0.38361">
        <ele>6</ele>
        <time>2018-05-31T16:11:40Z</time>
      </trkpt>
      <trkpt lat="49.15214" lon="-0.38317">
        <ele>5</ele>
        <time>2018-05-31T16:11:55Z</time>
      </trkpt>
      <trkpt lat="49.15224" lon="-0.3831">
        <ele>6</ele>
        <time>2018-05-31T16:12:00Z</time>
      </trkpt>
      <trkpt lat="49.1521" lon="-0.38308">
        <ele>7</ele>
        <time>2018-05-31T16:12:20Z</time>
      </trkpt>
      <trkpt lat="49.15209" lon="-0.38301">
        <ele>9</ele>
        <time>2018-05-31T16:12:25Z</time>
      </trkpt>
      <trkpt lat="49.15232" lon="-0.38273">
        <ele>7</ele>
        <time>2018-05-31T16:12:35Z</time>
      </trkpt>
      <trkpt lat="49.15276" lon="-0.3825">
        <ele>9</ele>
        <time>2018-05-31T16:12:45Z</time>
      </trkpt>
      <trkpt lat="49.15303" lon="-0.38233">
        <ele>9</ele>
        <time>2018-05-31T16:12:50Z</time>
      </trkpt>
      <trkpt lat="49.15395" lon="-0.38164">
        <ele>4</ele>
        <time>2018-05-31T16:13:05Z</time>
      </trkpt>
      <trkpt lat="49.15404" lon="-0.38174">
        <ele>3</ele>
        <time>2018-05-31T16:13:10Z</time>
      </trkpt>
      <trkpt lat="49.15397" lon="-0.38202">
        <ele>3</ele>
        <time>2018-05-31T16:13:15Z</time>
      </trkpt>
      <trkpt lat="49.15354" lon="-0.38304">
        <ele>9</ele>
        <time>2018-05-31T16:13:30Z</time>
      </trkpt>
      <trkpt lat="49.15339" lon="-0.38336">
        <ele>8</ele>
        <time>2018-05-31T16:13:35Z</time>
      </trkpt>
      <trkpt lat="49.15371" lon="-0.38387">
        <ele>3</ele>
        <time>2018-05-31T16:13:45Z</time>
      </trkpt>
      <trkpt lat="49.15395" lon="-0.38463">
        <ele>3</ele>
        <time>2018-05-31T16:13:55Z</time>
      </trkpt>
      <trkpt lat="49.15409" lon="-0.3855">
        <ele>3</ele>
        <time>2018-05-31T16:14:05Z</time>
      </trkpt>
      <trkpt lat="49.15413" lon="-0.38738">
        <ele>4</ele>
        <time>2018-05-31T16:14:25Z</time>
      </trkpt>
      <trkpt lat="49.15431" lon="-0.38826">
        <ele>5</ele>
        <time>2018-05-31T16:14:35Z</time>
      </trkpt>
      <trkpt lat="49.15472" lon="-0.38938">
        <ele>5</ele>
        <time>2018-05-31T16:14:50Z</time>
      </trkpt>
      <trkpt lat="49.15477" lon="-0.39033">
        <ele>5</ele>
        <time>2018-05-31T16:15:05Z</time>
      </trkpt>
      <trkpt lat="49.15469" lon="-0.391">
        <ele>5</ele>
        <time>2018-05-31T16:15:15Z</time>
      </trkpt>
      <trkpt lat="49.15452" lon="-0.3921">
        <ele>6</ele>
        <time>2018-05-31T16:15:30Z</time>
      </trkpt>
      <trkpt lat="49.15456" lon="-0.39237">
        <ele>5</ele>
        <time>2018-05-31T16:15:35Z</time>
      </trkpt>
      <trkpt lat="49.1548" lon="-0.39291">
        <ele>6</ele>
        <time>2018-05-31T16:15:45Z</time>
      </trkpt>
      <trkpt lat="49.15477" lon="-0.3933">
        <ele>7</ele>
        <time>2018-05-31T16:15:50Z</time>
      </trkpt>
      <trkpt lat="49.15452" lon="-0.39387">
        <ele>7</ele>
        <time>2018-05-31T16:16:10Z</time>
      </trkpt>
      <trkpt lat="49.15458" lon="-0.39384">
        <ele>8</ele>
        <time>2018-05-31T16:16:15Z</time>
      </trkpt>
      <trkpt lat="49.15479" lon="-0.39428">
        <ele>8</ele>
        <time>2018-05-31T16:16:25Z</time>
      </trkpt>
      <trkpt lat="49.15506" lon="-0.39464">
        <ele>9</ele>
        <time>2018-05-31T16:16:35Z</time>
      </trkpt>
      <trkpt lat="49.15496" lon="-0.39486">
        <ele>10</ele>
        <time>2018-05-31T16:16:40Z</time>
      </trkpt>
      <trkpt lat="49.15454" lon="-0.3956">
        <ele>12</ele>
        <time>2018-05-31T16:16:55Z</time>
      </trkpt>
      <trkpt lat="49.15425" lon="-0.39615">
        <ele>12</ele>
        <time>2018-05-31T16:17:05Z</time>
      </trkpt>
      <trkpt lat="49.15351" lon="-0.39743">
        <ele>16</ele>
        <time>2018-05-31T16:17:30Z</time>
      </trkpt>
      <trkpt lat="49.15338" lon="-0.39769">
        <ele>16</ele>
        <time>2018-05-31T16:17:35Z</time>
      </trkpt>
      <trkpt lat="49.15325" lon="-0.39795">
        <ele>18</ele>
        <time>2018-05-31T16:17:40Z</time>
      </trkpt>
      <trkpt lat="49.15281" lon="-0.39893">
        <ele>22</ele>
        <time>2018-05-31T16:18:00Z</time>
      </trkpt>
      <trkpt lat="49.1526" lon="-0.39942">
        <ele>23</ele>
        <time>2018-05-31T16:18:10Z</time>
      </trkpt>
      <trkpt lat="49.15227" lon="-0.40012">
        <ele>25</ele>
        <time>2018-05-31T16:18:25Z</time>
      </trkpt>
      <trkpt lat="49.15217" lon="-0.40034">
        <ele>26</ele>
        <time>2018-05-31T16:18:30Z</time>
      </trkpt>
      <trkpt lat="49.15211" lon="-0.40059">
        <ele>27</ele>
        <time>2018-05-31T16:18:40Z</time>
      </trkpt>
      <trkpt lat="49.1521" lon="-0.40081">
        <ele>28</ele>
        <time>2018-05-31T16:18:45Z</time>
      </trkpt>
      <trkpt lat="49.15211" lon="-0.40132">
        <ele>29</ele>
        <time>2018-05-31T16:18:55Z</time>
      </trkpt>
      <trkpt lat="49.15215" lon="-0.40241">
        <ele>32</ele>
        <time>2018-05-31T16:19:15Z</time>
      </trkpt>
      <trkpt lat="49.15221" lon="-0.40259">
        <ele>33</ele>
        <time>2018-05-31T16:19:20Z</time>
      </trkpt>
      <trkpt lat="49.15237" lon="-0.40261">
        <ele>33</ele>
        <time>2018-05-31T16:19:25Z</time>
      </trkpt>
      <trkpt lat="49.15298" lon="-0.40271">
        <ele>32</ele>
        <time>2018-05-31T16:19:40Z</time>
      </trkpt>
      <trkpt lat="49.15378" lon="-0.40288">
        <ele>31</ele>
        <time>2018-05-31T16:19:55Z</time>
      </trkpt>
      <trkpt lat="49.1541" lon="-0.40293">
        <ele>30</ele>
        <time>2018-05-31T16:20:00Z</time>
      </trkpt>
      <trkpt lat="49.15519" lon="-0.40302">
        <ele>27</ele>
        <time>2018-05-31T16:20:15Z</time>
      </trkpt>
      <trkpt lat="49.15554" lon="-0.40306">
        <ele>27</ele>
        <time>2018-05-31T16:20:20Z</time>
      </trkpt>
      <trkpt lat="49.15625" lon="-0.40321">
        <ele>26</ele>
        <time>2018-05-31T16:20:30Z</time>
      </trkpt>
      <trkpt lat="49.15726" lon="-0.40336">
        <ele>22</ele>
        <time>2018-05-31T16:20:45Z</time>
      </trkpt>
      <trkpt lat="49.1575" lon="-0.40335">
        <ele>21</ele>
        <time>2018-05-31T16:20:55Z</time>
      </trkpt>
      <trkpt lat="49.15776" lon="-0.40329">
        <ele>20</ele>
        <time>2018-05-31T16:21:00Z</time>
      </trkpt>
      <trkpt lat="49.15866" lon="-0.40291">
        <ele>19</ele>
        <time>2018-05-31T16:21:15Z</time>
      </trkpt>
      <trkpt lat="49.15904" lon="-0.40286">
        <ele>17</ele>
        <time>2018-05-31T16:21:20Z</time>
      </trkpt>
      <trkpt lat="49.15945" lon="-0.40292">
        <ele>15</ele>
        <time>2018-05-31T16:21:25Z</time>
      </trkpt>
      <trkpt lat="49.15978" lon="-0.40308">
        <ele>15</ele>
        <time>2018-05-31T16:21:30Z</time>
      </trkpt>
      <trkpt lat="49.16007" lon="-0.40326">
        <ele>16</ele>
        <time>2018-05-31T16:21:35Z</time>
      </trkpt>
      <trkpt lat="49.16046" lon="-0.40366">
        <ele>17</ele>
        <time>2018-05-31T16:21:45Z</time>
      </trkpt>
      <trkpt lat="49.16075" lon="-0.40336">
        <ele>19</ele>
        <time>2018-05-31T16:21:55Z</time>
      </trkpt>
      <trkpt lat="49.1613" lon="-0.40182">
        <ele>11</ele>
        <time>2018-05-31T16:22:15Z</time>
      </trkpt>
      <trkpt lat="49.16143" lon="-0.40157">
        <ele>10</ele>
        <time>2018-05-31T16:22:20Z</time>
      </trkpt>
      <trkpt lat="49.16157" lon="-0.40163">
        <ele>10</ele>
        <time>2018-05-31T16:22:30Z</time>
      </trkpt>
      <trkpt lat="49.16166" lon="-0.40175">
        <ele>10</ele>
        <time>2018-05-31T16:22:35Z</time>
      </trkpt>
      <trkpt lat="49.16167" lon="-0.40205">
        <ele>10</ele>
        <time>2018-05-31T16:22:45Z</time>
      </trkpt>
      <trkpt lat="49.16164" lon="-0.40228">
        <ele>11</ele>
        <time>2018-05-31T16:22:50Z</time>
      </trkpt>
      <trkpt lat="49.16149" lon="-0.40286">
        <ele>12</ele>
        <time>2018-05-31T16:23:00Z</time>
      </trkpt>
      <trkpt lat="49.16143" lon="-0.40351">
        <ele>12</ele>
        <time>2018-05-31T16:23:10Z</time>
      </trkpt>
      <trkpt lat="49.16143" lon="-0.4042">
        <ele>13</ele>
        <time>2018-05-31T16:23:20Z</time>
      </trkpt>
      <trkpt lat="49.16148" lon="-0.40573">
        <ele>15</ele>
        <time>2018-05-31T16:23:40Z</time>
      </trkpt>
      <trkpt lat="49.16156" lon="-0.40647">
        <ele>15</ele>
        <time>2018-05-31T16:23:50Z</time>
      </trkpt>
      <trkpt lat="49.16147" lon="-0.40758">
        <ele>14</ele>
        <time>2018-05-31T16:24:00Z</time>
      </trkpt>
      <trkpt lat="49.16141" lon="-0.4089">
        <ele>13</ele>
        <time>2018-05-31T16:24:15Z</time>
      </trkpt>
      <trkpt lat="49.16146" lon="-0.40925">
        <ele>13</ele>
        <time>2018-05-31T16:24:20Z</time>
      </trkpt>
      <trkpt lat="49.16148" lon="-0.40953">
        <ele>12</ele>
        <time>2018-05-31T16:24:25Z</time>
      </trkpt>
      <trkpt lat="49.16149" lon="-0.40987">
        <ele>12</ele>
        <time>2018-05-31T16:24:30Z</time>
      </trkpt>
      <trkpt lat="49.16155" lon="-0.41169">
        <ele>12</ele>
        <time>2018-05-31T16:24:55Z</time>
      </trkpt>
      <trkpt lat="49.16161" lon="-0.41236">
        <ele>14</ele>
        <time>2018-05-31T16:25:05Z</time>
      </trkpt>
      <trkpt lat="49.16162" lon="-0.41274">
        <ele>14</ele>
        <time>2018-05-31T16:25:10Z</time>
      </trkpt>
      <trkpt lat="49.16171" lon="-0.41333">
        <ele>14</ele>
        <time>2018-05-31T16:25:20Z</time>
      </trkpt>
      <trkpt lat="49.16176" lon="-0.41392">
        <ele>12</ele>
        <time>2018-05-31T16:25:30Z</time>
      </trkpt>
      <trkpt lat="49.16177" lon="-0.41458">
        <ele>12</ele>
        <time>2018-05-31T16:25:40Z</time>
      </trkpt>
      <trkpt lat="49.16185" lon="-0.41578">
        <ele>12</ele>
        <time>2018-05-31T16:25:55Z</time>
      </trkpt>
      <trkpt lat="49.1619" lon="-0.41617">
        <ele>12</ele>
        <time>2018-05-31T16:26:00Z</time>
      </trkpt>
      <trkpt lat="49.16198" lon="-0.41685">
        <ele>13</ele>
        <time>2018-05-31T16:26:10Z</time>
      </trkpt>
      <trkpt lat="49.16214" lon="-0.41799">
        <ele>14</ele>
        <time>2018-05-31T16:26:25Z</time>
      </trkpt>
      <trkpt lat="49.16233" lon="-0.41873">
        <ele>13</ele>
        <time>2018-05-31T16:26:35Z</time>
      </trkpt>
      <trkpt lat="49.16248" lon="-0.41953">
        <ele>13</ele>
        <time>2018-05-31T16:26:45Z</time>
      </trkpt>
      <trkpt lat="49.16263" lon="-0.4202">
        <ele>15</ele>
        <time>2018-05-31T16:26:55Z</time>
      </trkpt>
      <trkpt lat="49.16272" lon="-0.42048">
        <ele>16</ele>
        <time>2018-05-31T16:27:00Z</time>
      </trkpt>
      <trkpt lat="49.16294" lon="-0.42138">
        <ele>20</ele>
        <time>2018-05-31T16:27:15Z</time>
      </trkpt>
      <trkpt lat="49.16302" lon="-0.42201">
        <ele>23</ele>
        <time>2018-05-31T16:27:25Z</time>
      </trkpt>
      <trkpt lat="49.1632" lon="-0.42272">
        <ele>26</ele>
        <time>2018-05-31T16:27:40Z</time>
      </trkpt>
      <trkpt lat="49.16321" lon="-0.42279">
        <ele>26</ele>
        <time>2018-05-31T16:27:45Z</time>
      </trkpt>
      <trkpt lat="49.16318" lon="-0.42267">
        <ele>26</ele>
        <time>2018-05-31T16:27:50Z</time>
      </trkpt>
      <trkpt lat="49.16303" lon="-0.42222">
        <ele>24</ele>
        <time>2018-05-31T16:28:00Z</time>
      </trkpt>
      <trkpt lat="49.16289" lon="-0.42165">
        <ele>21</ele>
        <time>2018-05-31T16:28:15Z</time>
      </trkpt>
      <trkpt lat="49.16296" lon="-0.42154">
        <ele>21</ele>
        <time>2018-05-31T16:28:30Z</time>
      </trkpt>
      <trkpt lat="49.16296" lon="-0.42145">
        <ele>21</ele>
        <time>2018-05-31T16:28:35Z</time>
      </trkpt>
      <trkpt lat="49.163" lon="-0.42138">
        <ele>21</ele>
        <time>2018-05-31T16:28:45Z</time>
      </trkpt>
      <trkpt lat="49.16311" lon="-0.42124">
        <ele>21</ele>
        <time>2018-05-31T16:28:50Z</time>
      </trkpt>
      <trkpt lat="49.16349" lon="-0.42035">
        <ele>19</ele>
        <time>2018-05-31T16:29:05Z</time>
      </trkpt>
      <trkpt lat="49.16418" lon="-0.4189">
        <ele>17</ele>
        <time>2018-05-31T16:29:30Z</time>
      </trkpt>
      <trkpt lat="49.1643" lon="-0.41851">
        <ele>16</ele>
        <time>2018-05-31T16:29:35Z</time>
      </trkpt>
      <trkpt lat="49.16438" lon="-0.41806">
        <ele>15</ele>
        <time>2018-05-31T16:29:40Z</time>
      </trkpt>
      <trkpt lat="49.16428" lon="-0.4178">
        <ele>14</ele>
        <time>2018-05-31T16:29:45Z</time>
      </trkpt>
      <trkpt lat="49.16407" lon="-0.41778">
        <ele>15</ele>
        <time>2018-05-31T16:29:50Z</time>
      </trkpt>
      <trkpt lat="49.16368" lon="-0.41817">
        <ele>15</ele>
        <time>2018-05-31T16:30:00Z</time>
      </trkpt>
      <trkpt lat="49.16299" lon="-0.41794">
        <ele>11</ele>
        <time>2018-05-31T16:30:15Z</time>
      </trkpt>
      <trkpt lat="49.16285" lon="-0.41819">
        <ele>11</ele>
        <time>2018-05-31T16:30:20Z</time>
      </trkpt>
      <trkpt lat="49.16269" lon="-0.41852">
        <ele>11</ele>
        <time>2018-05-31T16:30:25Z</time>
      </trkpt>
      <trkpt lat="49.16264" lon="-0.41927">
        <ele>13</ele>
        <time>2018-05-31T16:30:35Z</time>
      </trkpt>
      <trkpt lat="49.16254" lon="-0.4195">
        <ele>13</ele>
        <time>2018-05-31T16:30:40Z</time>
      </trkpt>
      <trkpt lat="49.16197" lon="-0.41995">
        <ele>10</ele>
        <time>2018-05-31T16:30:55Z</time>
      </trkpt>
      <trkpt lat="49.16139" lon="-0.42104">
        <ele>11</ele>
        <time>2018-05-31T16:31:10Z</time>
      </trkpt>
      <trkpt lat="49.16109" lon="-0.4217">
        <ele>11</ele>
        <time>2018-05-31T16:31:20Z</time>
      </trkpt>
      <trkpt lat="49.16084" lon="-0.42187">
        <ele>10</ele>
        <time>2018-05-31T16:31:25Z</time>
      </trkpt>
      <trkpt lat="49.16042" lon="-0.42219">
        <ele>14</ele>
        <time>2018-05-31T16:31:35Z</time>
      </trkpt>
      <trkpt lat="49.16022" lon="-0.42218">
        <ele>14</ele>
        <time>2018-05-31T16:31:40Z</time>
      </trkpt>
      <trkpt lat="49.15978" lon="-0.42198">
        <ele>13</ele>
        <time>2018-05-31T16:31:50Z</time>
      </trkpt>
      <trkpt lat="49.15919" lon="-0.42179">
        <ele>16</ele>
        <time>2018-05-31T16:32:05Z</time>
      </trkpt>
      <trkpt lat="49.15903" lon="-0.4219">
        <ele>17</ele>
        <time>2018-05-31T16:32:10Z</time>
      </trkpt>
      <trkpt lat="49.1585" lon="-0.42238">
        <ele>20</ele>
        <time>2018-05-31T16:32:25Z</time>
      </trkpt>
      <trkpt lat="49.15816" lon="-0.42271">
        <ele>22</ele>
        <time>2018-05-31T16:32:35Z</time>
      </trkpt>
      <trkpt lat="49.1574" lon="-0.42342">
        <ele>25</ele>
        <time>2018-05-31T16:33:00Z</time>
      </trkpt>
      <trkpt lat="49.15726" lon="-0.42359">
        <ele>26</ele>
        <time>2018-05-31T16:33:05Z</time>
      </trkpt>
      <trkpt lat="49.15705" lon="-0.42402">
        <ele>25</ele>
        <time>2018-05-31T16:33:15Z</time>
      </trkpt>
      <trkpt lat="49.15669" lon="-0.42468">
        <ele>30</ele>
        <time>2018-05-31T16:33:30Z</time>
      </trkpt>
      <trkpt lat="49.15655" lon="-0.42522">
        <ele>30</ele>
        <time>2018-05-31T16:33:40Z</time>
      </trkpt>
      <trkpt lat="49.15651" lon="-0.4255">
        <ele>29</ele>
        <time>2018-05-31T16:33:45Z</time>
      </trkpt>
      <trkpt lat="49.15704" lon="-0.42594">
        <ele>24</ele>
        <time>2018-05-31T16:33:55Z</time>
      </trkpt>
      <trkpt lat="49.15779" lon="-0.42636">
        <ele>16</ele>
        <time>2018-05-31T16:34:05Z</time>
      </trkpt>
      <trkpt lat="49.15786" lon="-0.42753">
        <ele>17</ele>
        <time>2018-05-31T16:34:25Z</time>
      </trkpt>
      <trkpt lat="49.15791" lon="-0.42689">
        <ele>16</ele>
        <time>2018-05-31T16:34:40Z</time>
      </trkpt>
      <trkpt lat="49.15796" lon="-0.4268">
        <ele>16</ele>
        <time>2018-05-31T16:34:45Z</time>
      </trkpt>
      <trkpt lat="49.15868" lon="-0.42704">
        <ele>15</ele>
        <time>2018-05-31T16:35:00Z</time>
      </trkpt>
      <trkpt lat="49.15904" lon="-0.42711">
        <ele>16</ele>
        <time>2018-05-31T16:35:10Z</time>
      </trkpt>
      <trkpt lat="49.1591" lon="-0.42719">
        <ele>16</ele>
        <time>2018-05-31T16:35:15Z</time>
      </trkpt>
      <trkpt lat="49.15892" lon="-0.42762">
        <ele>13</ele>
        <time>2018-05-31T16:35:25Z</time>
      </trkpt>
      <trkpt lat="49.15869" lon="-0.42829">
        <ele>14</ele>
        <time>2018-05-31T16:35:35Z</time>
      </trkpt>
      <trkpt lat="49.15863" lon="-0.42868">
        <ele>13</ele>
        <time>2018-05-31T16:35:40Z</time>
      </trkpt>
      <trkpt lat="49.15933" lon="-0.4291">
        <ele>12</ele>
        <time>2018-05-31T16:35:55Z</time>
      </trkpt>
      <trkpt lat="49.15966" lon="-0.42975">
        <ele>14</ele>
        <time>2018-05-31T16:36:05Z</time>
      </trkpt>
      <trkpt lat="49.15914" lon="-0.43001">
        <ele>14</ele>
        <time>2018-05-31T16:36:15Z</time>
      </trkpt>
      <trkpt lat="49.15877" lon="-0.431">
        <ele>14</ele>
        <time>2018-05-31T16:36:30Z</time>
      </trkpt>
      <trkpt lat="49.15875" lon="-0.43139">
        <ele>14</ele>
        <time>2018-05-31T16:36:35Z</time>
      </trkpt>
      <trkpt lat="49.15955" lon="-0.43164">
        <ele>14</ele>
        <time>2018-05-31T16:36:50Z</time>
      </trkpt>
      <trkpt lat="49.15965" lon="-0.43198">
        <ele>14</ele>
        <time>2018-05-31T16:36:55Z</time>
      </trkpt>
      <trkpt lat="49.15931" lon="-0.43265">
        <ele>14</ele>
        <time>2018-05-31T16:37:05Z</time>
      </trkpt>
      <trkpt lat="49.15892" lon="-0.43299">
        <ele>15</ele>
        <time>2018-05-31T16:37:15Z</time>
      </trkpt>
      <trkpt lat="49.15881" lon="-0.43328">
        <ele>15</ele>
        <time>2018-05-31T16:37:20Z</time>
      </trkpt>
      <trkpt lat="49.15875" lon="-0.43391">
        <ele>15</ele>
        <time>2018-05-31T16:37:30Z</time>
      </trkpt>
      <trkpt lat="49.15801" lon="-0.43427">
        <ele>16</ele>
        <time>2018-05-31T16:37:45Z</time>
      </trkpt>
      <trkpt lat="49.15776" lon="-0.4345">
        <ele>15</ele>
        <time>2018-05-31T16:37:50Z</time>
      </trkpt>
      <trkpt lat="49.15777" lon="-0.43481">
        <ele>16</ele>
        <time>2018-05-31T16:38:00Z</time>
      </trkpt>
      <trkpt lat="49.15809" lon="-0.43501">
        <ele>16</ele>
        <time>2018-05-31T16:38:10Z</time>
      </trkpt>
      <trkpt lat="49.15791" lon="-0.43509">
        <ele>16</ele>
        <time>2018-05-31T16:38:15Z</time>
      </trkpt>
      <trkpt lat="49.15739" lon="-0.43496">
        <ele>16</ele>
        <time>2018-05-31T16:38:25Z</time>
      </trkpt>
      <trkpt lat="49.15672" lon="-0.43552">
        <ele>19</ele>
        <time>2018-05-31T16:38:40Z</time>
      </trkpt>
      <trkpt lat="49.15627" lon="-0.43598">
        <ele>19</ele>
        <time>2018-05-31T16:38:50Z</time>
      </trkpt>
      <trkpt lat="49.15579" lon="-0.43634">
        <ele>23</ele>
        <time>2018-05-31T16:39:00Z</time>
      </trkpt>
      <trkpt lat="49.15559" lon="-0.43662">
        <ele>23</ele>
        <time>2018-05-31T16:39:05Z</time>
      </trkpt>
      <trkpt lat="49.15494" lon="-0.43797">
        <ele>21</ele>
        <time>2018-05-31T16:39:25Z</time>
      </trkpt>
      <trkpt lat="49.15478" lon="-0.43829">
        <ele>22</ele>
        <time>2018-05-31T16:39:30Z</time>
      </trkpt>
      <trkpt lat="49.15466" lon="-0.4383">
        <ele>25</ele>
        <time>2018-05-31T16:39:35Z</time>
      </trkpt>
      <trkpt lat="49.15458" lon="-0.43833">
        <ele>25</ele>
        <time>2018-05-31T16:39:40Z</time>
      </trkpt>
      <trkpt lat="49.15452" lon="-0.43843">
        <ele>25</ele>
        <time>2018-05-31T16:40:05Z</time>
      </trkpt>
      <trkpt lat="49.1545" lon="-0.43848">
        <ele>25</ele>
        <time>2018-05-31T16:40:25Z</time>
      </trkpt>
      <trkpt lat="49.15437" lon="-0.4386">
        <ele>25</ele>
        <time>2018-05-31T16:40:45Z</time>
      </trkpt>
      <trkpt lat="49.1543" lon="-0.43871">
        <ele>25</ele>
        <time>2018-05-31T16:40:50Z</time>
      </trkpt>
      <trkpt lat="49.15415" lon="-0.43879">
        <ele>26</ele>
        <time>2018-05-31T16:41:00Z</time>
      </trkpt>
      <trkpt lat="49.15413" lon="-0.43882">
        <ele>26</ele>
        <time>2018-05-31T16:41:20Z</time>
      </trkpt>
      <trkpt lat="49.15418" lon="-0.43884">
        <ele>26</ele>
        <time>2018-05-31T16:41:30Z</time>
      </trkpt>
      <trkpt lat="49.15422" lon="-0.43878">
        <ele>26</ele>
        <time>2018-05-31T16:41:35Z</time>
      </trkpt>
      <trkpt lat="49.15425" lon="-0.43874">
        <ele>26</ele>
        <time>2018-05-31T16:41:40Z</time>
      </trkpt>
      <trkpt lat="49.1543" lon="-0.43871">
        <ele>25</ele>
        <time>2018-05-31T16:41:45Z</time>
      </trkpt>
      <trkpt lat="49.1544" lon="-0.43863">
        <ele>25</ele>
        <time>2018-05-31T16:41:55Z</time>
      </trkpt>
      <trkpt lat="49.15444" lon="-0.43854">
        <ele>25</ele>
        <time>2018-05-31T16:42:05Z</time>
      </trkpt>
      <trkpt lat="49.15441" lon="-0.43845">
        <ele>26</ele>
        <time>2018-05-31T16:42:15Z</time>
      </trkpt>
      <trkpt lat="49.15435" lon="-0.43838">
        <ele>27</ele>
        <time>2018-05-31T16:42:25Z</time>
      </trkpt>
      <trkpt lat="49.15426" lon="-0.43808">
        <ele>29</ele>
        <time>2018-05-31T16:42:40Z</time>
      </trkpt>
      <trkpt lat="49.15409" lon="-0.4381">
        <ele>30</ele>
        <time>2018-05-31T16:42:55Z</time>
      </trkpt>
      <trkpt lat="49.15407" lon="-0.43815">
        <ele>30</ele>
        <time>2018-05-31T16:43:00Z</time>
      </trkpt>
      <trkpt lat="49.15398" lon="-0.43836">
        <ele>31</ele>
        <time>2018-05-31T16:43:15Z</time>
      </trkpt>
      <trkpt lat="49.15384" lon="-0.43875">
        <ele>30</ele>
        <time>2018-05-31T16:43:30Z</time>
      </trkpt>
      <trkpt lat="49.15377" lon="-0.43895">
        <ele>30</ele>
        <time>2018-05-31T16:43:35Z</time>
      </trkpt>
      <trkpt lat="49.15357" lon="-0.43932">
        <ele>30</ele>
        <time>2018-05-31T16:43:45Z</time>
      </trkpt>
      <trkpt lat="49.15344" lon="-0.43962">
        <ele>29</ele>
        <time>2018-05-31T16:44:00Z</time>
      </trkpt>
      <trkpt lat="49.15344" lon="-0.43963">
        <ele>29</ele>
        <time>2018-05-31T16:44:15Z</time>
      </trkpt>
      <trkpt lat="49.15342" lon="-0.43966">
        <ele>29</ele>
        <time>2018-05-31T16:44:40Z</time>
      </trkpt>
      <trkpt lat="49.15333" lon="-0.43989">
        <ele>29</ele>
        <time>2018-05-31T16:44:50Z</time>
      </trkpt>
      <trkpt lat="49.1531" lon="-0.4405">
        <ele>28</ele>
        <time>2018-05-31T16:45:00Z</time>
      </trkpt>
      <trkpt lat="49.15293" lon="-0.44098">
        <ele>27</ele>
        <time>2018-05-31T16:45:05Z</time>
      </trkpt>
      <trkpt lat="49.15278" lon="-0.44173">
        <ele>28</ele>
        <time>2018-05-31T16:45:15Z</time>
      </trkpt>
      <trkpt lat="49.15261" lon="-0.44232">
        <ele>31</ele>
        <time>2018-05-31T16:45:25Z</time>
      </trkpt>
      <trkpt lat="49.15238" lon="-0.44277">
        <ele>34</ele>
        <time>2018-05-31T16:45:35Z</time>
      </trkpt>
      <trkpt lat="49.15196" lon="-0.44333">
        <ele>35</ele>
        <time>2018-05-31T16:45:50Z</time>
      </trkpt>
      <trkpt lat="49.15181" lon="-0.44366">
        <ele>34</ele>
        <time>2018-05-31T16:46:00Z</time>
      </trkpt>
      <trkpt lat="49.15161" lon="-0.44415">
        <ele>34</ele>
        <time>2018-05-31T16:46:10Z</time>
      </trkpt>
      <trkpt lat="49.15137" lon="-0.44475">
        <ele>35</ele>
        <time>2018-05-31T16:46:20Z</time>
      </trkpt>
      <trkpt lat="49.15115" lon="-0.4454">
        <ele>36</ele>
        <time>2018-05-31T16:46:30Z</time>
      </trkpt>
      <trkpt lat="49.15063" lon="-0.44685">
        <ele>34</ele>
        <time>2018-05-31T16:46:50Z</time>
      </trkpt>
      <trkpt lat="49.15031" lon="-0.44751">
        <ele>35</ele>
        <time>2018-05-31T16:47:00Z</time>
      </trkpt>
      <trkpt lat="49.15026" lon="-0.4476">
        <ele>35</ele>
        <time>2018-05-31T16:47:05Z</time>
      </trkpt>
      <trkpt lat="49.15007" lon="-0.44781">
        <ele>37</ele>
        <time>2018-05-31T16:47:15Z</time>
      </trkpt>
      <trkpt lat="49.1498" lon="-0.44808">
        <ele>40</ele>
        <time>2018-05-31T16:47:30Z</time>
      </trkpt>
      <trkpt lat="49.14953" lon="-0.4484">
        <ele>42</ele>
        <time>2018-05-31T16:47:45Z</time>
      </trkpt>
      <trkpt lat="49.14951" lon="-0.44838">
        <ele>42</ele>
        <time>2018-05-31T16:47:50Z</time>
      </trkpt>
      <trkpt lat="49.14968" lon="-0.44822">
        <ele>41</ele>
        <time>2018-05-31T16:47:55Z</time>
      </trkpt>
      <trkpt lat="49.15017" lon="-0.44767">
        <ele>36</ele>
        <time>2018-05-31T16:48:05Z</time>
      </trkpt>
      <trkpt lat="49.15022" lon="-0.44777">
        <ele>35</ele>
        <time>2018-05-31T16:48:15Z</time>
      </trkpt>
      <trkpt lat="49.15004" lon="-0.44817">
        <ele>36</ele>
        <time>2018-05-31T16:48:25Z</time>
      </trkpt>
      <trkpt lat="49.14986" lon="-0.4487">
        <ele>38</ele>
        <time>2018-05-31T16:48:35Z</time>
      </trkpt>
      <trkpt lat="49.14957" lon="-0.44951">
        <ele>41</ele>
        <time>2018-05-31T16:48:50Z</time>
      </trkpt>
      <trkpt lat="49.1493" lon="-0.45005">
        <ele>42</ele>
        <time>2018-05-31T16:49:00Z</time>
      </trkpt>
      <trkpt lat="49.14915" lon="-0.45028">
        <ele>43</ele>
        <time>2018-05-31T16:49:05Z</time>
      </trkpt>
      <trkpt lat="49.14871" lon="-0.45101">
        <ele>44</ele>
        <time>2018-05-31T16:49:20Z</time>
      </trkpt>
      <trkpt lat="49.14856" lon="-0.4513">
        <ele>44</ele>
        <time>2018-05-31T16:49:25Z</time>
      </trkpt>
      <trkpt lat="49.14831" lon="-0.45185">
        <ele>44</ele>
        <time>2018-05-31T16:49:35Z</time>
      </trkpt>
      <trkpt lat="49.14825" lon="-0.45212">
        <ele>44</ele>
        <time>2018-05-31T16:49:40Z</time>
      </trkpt>
      <trkpt lat="49.14782" lon="-0.45359">
        <ele>44</ele>
        <time>2018-05-31T16:50:00Z</time>
      </trkpt>
      <trkpt lat="49.14733" lon="-0.45487">
        <ele>42</ele>
        <time>2018-05-31T16:50:20Z</time>
      </trkpt>
      <trkpt lat="49.14725" lon="-0.45534">
        <ele>42</ele>
        <time>2018-05-31T16:50:30Z</time>
      </trkpt>
      <trkpt lat="49.14716" lon="-0.45564">
        <ele>43</ele>
        <time>2018-05-31T16:50:35Z</time>
      </trkpt>
      <trkpt lat="49.14692" lon="-0.45618">
        <ele>46</ele>
        <time>2018-05-31T16:50:45Z</time>
      </trkpt>
      <trkpt lat="49.14667" lon="-0.45678">
        <ele>46</ele>
        <time>2018-05-31T16:50:55Z</time>
      </trkpt>
      <trkpt lat="49.1464" lon="-0.45736">
        <ele>47</ele>
        <time>2018-05-31T16:51:05Z</time>
      </trkpt>
      <trkpt lat="49.14592" lon="-0.45818">
        <ele>47</ele>
        <time>2018-05-31T16:51:20Z</time>
      </trkpt>
      <trkpt lat="49.14561" lon="-0.45861">
        <ele>47</ele>
        <time>2018-05-31T16:51:30Z</time>
      </trkpt>
      <trkpt lat="49.1456" lon="-0.45907">
        <ele>46</ele>
        <time>2018-05-31T16:51:40Z</time>
      </trkpt>
      <trkpt lat="49.14534" lon="-0.45915">
        <ele>47</ele>
        <time>2018-05-31T16:51:50Z</time>
      </trkpt>
      <trkpt lat="49.14535" lon="-0.45911">
        <ele>47</ele>
        <time>2018-05-31T16:51:55Z</time>
      </trkpt>
      <trkpt lat="49.14564" lon="-0.45911">
        <ele>45</ele>
        <time>2018-05-31T16:52:05Z</time>
      </trkpt>
      <trkpt lat="49.14578" lon="-0.45981">
        <ele>44</ele>
        <time>2018-05-31T16:52:15Z</time>
      </trkpt>
      <trkpt lat="49.14593" lon="-0.46111">
        <ele>39</ele>
        <time>2018-05-31T16:52:30Z</time>
      </trkpt>
      <trkpt lat="49.1459" lon="-0.46217">
        <ele>41</ele>
        <time>2018-05-31T16:52:45Z</time>
      </trkpt>
      <trkpt lat="49.14589" lon="-0.46247">
        <ele>42</ele>
        <time>2018-05-31T16:52:50Z</time>
      </trkpt>
      <trkpt lat="49.14574" lon="-0.46352">
        <ele>42</ele>
        <time>2018-05-31T16:53:05Z</time>
      </trkpt>
      <trkpt lat="49.14573" lon="-0.46395">
        <ele>42</ele>
        <time>2018-05-31T16:53:10Z</time>
      </trkpt>
      <trkpt lat="49.14577" lon="-0.46476">
        <ele>42</ele>
        <time>2018-05-31T16:53:20Z</time>
      </trkpt>
      <trkpt lat="49.14576" lon="-0.4655">
        <ele>43</ele>
        <time>2018-05-31T16:53:30Z</time>
      </trkpt>
      <trkpt lat="49.14586" lon="-0.46616">
        <ele>43</ele>
        <time>2018-05-31T16:53:40Z</time>
      </trkpt>
      <trkpt lat="49.14587" lon="-0.4664">
        <ele>43</ele>
        <time>2018-05-31T16:53:45Z</time>
      </trkpt>
      <trkpt lat="49.14585" lon="-0.46715">
        <ele>40</ele>
        <time>2018-05-31T16:54:00Z</time>
      </trkpt>
      <trkpt lat="49.14577" lon="-0.46776">
        <ele>39</ele>
        <time>2018-05-31T16:54:10Z</time>
      </trkpt>
      <trkpt lat="49.14567" lon="-0.46929">
        <ele>38</ele>
        <time>2018-05-31T16:54:30Z</time>
      </trkpt>
      <trkpt lat="49.14564" lon="-0.47">
        <ele>35</ele>
        <time>2018-05-31T16:54:40Z</time>
      </trkpt>
      <trkpt lat="49.14566" lon="-0.47042">
        <ele>32</ele>
        <time>2018-05-31T16:54:50Z</time>
      </trkpt>
      <trkpt lat="49.14556" lon="-0.47066">
        <ele>39</ele>
        <time>2018-05-31T16:54:55Z</time>
      </trkpt>
      <trkpt lat="49.14549" lon="-0.47086">
        <ele>43</ele>
        <time>2018-05-31T16:55:00Z</time>
      </trkpt>
      <trkpt lat="49.14548" lon="-0.47101">
        <ele>45</ele>
        <time>2018-05-31T16:55:05Z</time>
      </trkpt>
      <trkpt lat="49.14547" lon="-0.47137">
        <ele>47</ele>
        <time>2018-05-31T16:55:15Z</time>
      </trkpt>
      <trkpt lat="49.1455" lon="-0.47158">
        <ele>47</ele>
        <time>2018-05-31T16:55:20Z</time>
      </trkpt>
      <trkpt lat="49.1455" lon="-0.47187">
        <ele>47</ele>
        <time>2018-05-31T16:55:35Z</time>
      </trkpt>
      <trkpt lat="49.14535" lon="-0.47245">
        <ele>55</ele>
        <time>2018-05-31T16:55:50Z</time>
      </trkpt>
      <trkpt lat="49.14541" lon="-0.47269">
        <ele>50</ele>
        <time>2018-05-31T16:55:55Z</time>
      </trkpt>
      <trkpt lat="49.14511" lon="-0.47295">
        <ele>53</ele>
        <time>2018-05-31T16:56:05Z</time>
      </trkpt>
      <trkpt lat="49.1449" lon="-0.47337">
        <ele>50</ele>
        <time>2018-05-31T16:56:15Z</time>
      </trkpt>
      <trkpt lat="49.14463" lon="-0.47378">
        <ele>55</ele>
        <time>2018-05-31T16:56:25Z</time>
      </trkpt>
      <trkpt lat="49.14451" lon="-0.47434">
        <ele>49</ele>
        <time>2018-05-31T16:56:35Z</time>
      </trkpt>
      <trkpt lat="49.14445" lon="-0.47451">
        <ele>49</ele>
        <time>2018-05-31T16:56:40Z</time>
      </trkpt>
      <trkpt lat="49.14442" lon="-0.4749">
        <ele>47</ele>
        <time>2018-05-31T16:56:50Z</time>
      </trkpt>
      <trkpt lat="49.14439" lon="-0.47493">
        <ele>49</ele>
        <time>2018-05-31T16:56:55Z</time>
      </trkpt>
      <trkpt lat="49.14423" lon="-0.47576">
        <ele>46</ele>
        <time>2018-05-31T16:57:20Z</time>
      </trkpt>
      <trkpt lat="49.14417" lon="-0.47597">
        <ele>48</ele>
        <time>2018-05-31T16:57:25Z</time>
      </trkpt>
      <trkpt lat="49.14395" lon="-0.4765">
        <ele>50</ele>
        <time>2018-05-31T16:57:40Z</time>
      </trkpt>
      <trkpt lat="49.14384" lon="-0.47727">
        <ele>54</ele>
        <time>2018-05-31T16:58:00Z</time>
      </trkpt>
      <trkpt lat="49.14373" lon="-0.47745">
        <ele>57</ele>
        <time>2018-05-31T16:58:10Z</time>
      </trkpt>
      <trkpt lat="49.14372" lon="-0.47773">
        <ele>57</ele>
        <time>2018-05-31T16:58:20Z</time>
      </trkpt>
      <trkpt lat="49.14365" lon="-0.47801">
        <ele>57</ele>
        <time>2018-05-31T16:58:35Z</time>
      </trkpt>
      <trkpt lat="49.14366" lon="-0.47818">
        <ele>54</ele>
        <time>2018-05-31T16:58:45Z</time>
      </trkpt>
      <trkpt lat="49.14364" lon="-0.47828">
        <ele>53</ele>
        <time>2018-05-31T16:58:50Z</time>
      </trkpt>
      <trkpt lat="49.14359" lon="-0.47837">
        <ele>54</ele>
        <time>2018-05-31T16:58:55Z</time>
      </trkpt>
      <trkpt lat="49.14349" lon="-0.47861">
        <ele>55</ele>
        <time>2018-05-31T16:59:05Z</time>
      </trkpt>
      <trkpt lat="49.14339" lon="-0.47882">
        <ele>56</ele>
        <time>2018-05-31T16:59:15Z</time>
      </trkpt>
      <trkpt lat="49.14331" lon="-0.47895">
        <ele>57</ele>
        <time>2018-05-31T16:59:20Z</time>
      </trkpt>
      <trkpt lat="49.14322" lon="-0.47906">
        <ele>57</ele>
        <time>2018-05-31T16:59:25Z</time>
      </trkpt>
      <trkpt lat="49.1431" lon="-0.47912">
        <ele>57</ele>
        <time>2018-05-31T16:59:30Z</time>
      </trkpt>
      <trkpt lat="49.14294" lon="-0.47913">
        <ele>57</ele>
        <time>2018-05-31T16:59:45Z</time>
      </trkpt>
      <trkpt lat="49.14288" lon="-0.4791">
        <ele>57</ele>
        <time>2018-05-31T16:59:50Z</time>
      </trkpt>
      <trkpt lat="49.14281" lon="-0.47901">
        <ele>58</ele>
        <time>2018-05-31T16:59:55Z</time>
      </trkpt>
      <trkpt lat="49.14272" lon="-0.47882">
        <ele>61</ele>
        <time>2018-05-31T17:00:05Z</time>
      </trkpt>
      <trkpt lat="49.14252" lon="-0.47855">
        <ele>64</ele>
        <time>2018-05-31T17:00:20Z</time>
      </trkpt>
      <trkpt lat="49.14238" lon="-0.47829">
        <ele>67</ele>
        <time>2018-05-31T17:00:30Z</time>
      </trkpt>
      <trkpt lat="49.14236" lon="-0.47814">
        <ele>69</ele>
        <time>2018-05-31T17:00:35Z</time>
      </trkpt>
      <trkpt lat="49.14235" lon="-0.478">
        <ele>70</ele>
        <time>2018-05-31T17:00:40Z</time>
      </trkpt>
      <trkpt lat="49.14231" lon="-0.47769">
        <ele>72</ele>
        <time>2018-05-31T17:00:55Z</time>
      </trkpt>
      <trkpt lat="49.14231" lon="-0.47761">
        <ele>73</ele>
        <time>2018-05-31T17:01:00Z</time>
      </trkpt>
      <trkpt lat="49.14238" lon="-0.47732">
        <ele>74</ele>
        <time>2018-05-31T17:01:15Z</time>
      </trkpt>
      <trkpt lat="49.1424" lon="-0.47711">
        <ele>75</ele>
        <time>2018-05-31T17:01:25Z</time>
      </trkpt>
      <trkpt lat="49.14238" lon="-0.47702">
        <ele>75</ele>
        <time>2018-05-31T17:01:30Z</time>
      </trkpt>
      <trkpt lat="49.14239" lon="-0.47681">
        <ele>75</ele>
        <time>2018-05-31T17:01:50Z</time>
      </trkpt>
      <trkpt lat="49.14242" lon="-0.47689">
        <ele>74</ele>
        <time>2018-05-31T17:02:00Z</time>
      </trkpt>
      <trkpt lat="49.14243" lon="-0.47695">
        <ele>74</ele>
        <time>2018-05-31T17:02:05Z</time>
      </trkpt>
      <trkpt lat="49.14244" lon="-0.47729">
        <ele>74</ele>
        <time>2018-05-31T17:02:20Z</time>
      </trkpt>
      <trkpt lat="49.14243" lon="-0.47741">
        <ele>73</ele>
        <time>2018-05-31T17:02:25Z</time>
      </trkpt>
      <trkpt lat="49.1424" lon="-0.47747">
        <ele>73</ele>
        <time>2018-05-31T17:02:30Z</time>
      </trkpt>
      <trkpt lat="49.14229" lon="-0.47753">
        <ele>74</ele>
        <time>2018-05-31T17:02:40Z</time>
      </trkpt>
      <trkpt lat="49.14223" lon="-0.47754">
        <ele>75</ele>
        <time>2018-05-31T17:02:45Z</time>
      </trkpt>
      <trkpt lat="49.1422" lon="-0.47753">
        <ele>76</ele>
        <time>2018-05-31T17:02:50Z</time>
      </trkpt>
      <trkpt lat="49.14219" lon="-0.47753">
        <ele>76</ele>
        <time>2018-05-31T17:02:55Z</time>
      </trkpt>
      <trkpt lat="49.14214" lon="-0.47754">
        <ele>78</ele>
        <time>2018-05-31T17:03:05Z</time>
      </trkpt>
      <trkpt lat="49.14203" lon="-0.47752">
        <ele>80</ele>
        <time>2018-05-31T17:03:15Z</time>
      </trkpt>
      <trkpt lat="49.1419" lon="-0.47746">
        <ele>82</ele>
        <time>2018-05-31T17:03:35Z</time>
      </trkpt>
      <trkpt lat="49.14169" lon="-0.47739">
        <ele>83</ele>
        <time>2018-05-31T17:04:00Z</time>
      </trkpt>
      <trkpt lat="49.14162" lon="-0.47735">
        <ele>84</ele>
        <time>2018-05-31T17:04:05Z</time>
      </trkpt>
      <trkpt lat="49.14149" lon="-0.47731">
        <ele>84</ele>
        <time>2018-05-31T17:04:15Z</time>
      </trkpt>
      <trkpt lat="49.14136" lon="-0.47721">
        <ele>85</ele>
        <time>2018-05-31T17:04:25Z</time>
      </trkpt>
      <trkpt lat="49.14115" lon="-0.47715">
        <ele>83</ele>
        <time>2018-05-31T17:04:35Z</time>
      </trkpt>
      <trkpt lat="49.14081" lon="-0.47702">
        <ele>83</ele>
        <time>2018-05-31T17:04:50Z</time>
      </trkpt>
      <trkpt lat="49.14061" lon="-0.47691">
        <ele>84</ele>
        <time>2018-05-31T17:05:00Z</time>
      </trkpt>
      <trkpt lat="49.14052" lon="-0.47687">
        <ele>85</ele>
        <time>2018-05-31T17:05:05Z</time>
      </trkpt>
      <trkpt lat="49.1403" lon="-0.47685">
        <ele>87</ele>
        <time>2018-05-31T17:05:15Z</time>
      </trkpt>
      <trkpt lat="49.13999" lon="-0.47703">
        <ele>89</ele>
        <time>2018-05-31T17:05:30Z</time>
      </trkpt>
      <trkpt lat="49.13986" lon="-0.4771">
        <ele>91</ele>
        <time>2018-05-31T17:05:35Z</time>
      </trkpt>
      <trkpt lat="49.13955" lon="-0.47725">
        <ele>94</ele>
        <time>2018-05-31T17:05:45Z</time>
      </trkpt>
      <trkpt lat="49.13939" lon="-0.47732">
        <ele>94</ele>
        <time>2018-05-31T17:05:50Z</time>
      </trkpt>
      <trkpt lat="49.13878" lon="-0.47763">
        <ele>94</ele>
        <time>2018-05-31T17:06:10Z</time>
      </trkpt>
      <trkpt lat="49.13837" lon="-0.47786">
        <ele>96</ele>
        <time>2018-05-31T17:06:25Z</time>
      </trkpt>
      <trkpt lat="49.13802" lon="-0.4781">
        <ele>97</ele>
        <time>2018-05-31T17:06:35Z</time>
      </trkpt>
      <trkpt lat="49.13762" lon="-0.47841">
        <ele>91</ele>
        <time>2018-05-31T17:06:45Z</time>
      </trkpt>
      <trkpt lat="49.13726" lon="-0.47858">
        <ele>87</ele>
        <time>2018-05-31T17:06:55Z</time>
      </trkpt>
      <trkpt lat="49.13709" lon="-0.47869">
        <ele>86</ele>
        <time>2018-05-31T17:07:00Z</time>
      </trkpt>
      <trkpt lat="49.13635" lon="-0.47924">
        <ele>83</ele>
        <time>2018-05-31T17:07:20Z</time>
      </trkpt>
      <trkpt lat="49.13629" lon="-0.47938">
        <ele>83</ele>
        <time>2018-05-31T17:07:25Z</time>
      </trkpt>
      <trkpt lat="49.13634" lon="-0.47956">
        <ele>84</ele>
        <time>2018-05-31T17:07:30Z</time>
      </trkpt>
      <trkpt lat="49.13642" lon="-0.47982">
        <ele>85</ele>
        <time>2018-05-31T17:07:35Z</time>
      </trkpt>
      <trkpt lat="49.13655" lon="-0.4801">
        <ele>86</ele>
        <time>2018-05-31T17:07:40Z</time>
      </trkpt>
      <trkpt lat="49.1367" lon="-0.48054">
        <ele>87</ele>
        <time>2018-05-31T17:07:50Z</time>
      </trkpt>
      <trkpt lat="49.13652" lon="-0.48079">
        <ele>82</ele>
        <time>2018-05-31T17:08:00Z</time>
      </trkpt>
      <trkpt lat="49.13639" lon="-0.48092">
        <ele>79</ele>
        <time>2018-05-31T17:08:10Z</time>
      </trkpt>
      <trkpt lat="49.13637" lon="-0.48094">
        <ele>79</ele>
        <time>2018-05-31T17:08:15Z</time>
      </trkpt>
      <trkpt lat="49.13626" lon="-0.48095">
        <ele>78</ele>
        <time>2018-05-31T17:08:30Z</time>
      </trkpt>
      <trkpt lat="49.13617" lon="-0.48107">
        <ele>77</ele>
        <time>2018-05-31T17:08:40Z</time>
      </trkpt>
      <trkpt lat="49.13613" lon="-0.48137">
        <ele>75</ele>
        <time>2018-05-31T17:09:00Z</time>
      </trkpt>
      <trkpt lat="49.13596" lon="-0.4816">
        <ele>75</ele>
        <time>2018-05-31T17:09:15Z</time>
      </trkpt>
      <trkpt lat="49.1359" lon="-0.48198">
        <ele>72</ele>
        <time>2018-05-31T17:09:25Z</time>
      </trkpt>
      <trkpt lat="49.13589" lon="-0.48218">
        <ele>68</ele>
        <time>2018-05-31T17:09:35Z</time>
      </trkpt>
      <trkpt lat="49.13576" lon="-0.48243">
        <ele>70</ele>
        <time>2018-05-31T17:09:45Z</time>
      </trkpt>
      <trkpt lat="49.13565" lon="-0.48272">
        <ele>70</ele>
        <time>2018-05-31T17:09:55Z</time>
      </trkpt>
      <trkpt lat="49.13565" lon="-0.48322">
        <ele>62</ele>
        <time>2018-05-31T17:10:05Z</time>
      </trkpt>
      <trkpt lat="49.13571" lon="-0.48361">
        <ele>60</ele>
        <time>2018-05-31T17:10:15Z</time>
      </trkpt>
      <trkpt lat="49.13593" lon="-0.48418">
        <ele>52</ele>
        <time>2018-05-31T17:10:30Z</time>
      </trkpt>
      <trkpt lat="49.13582" lon="-0.48454">
        <ele>52</ele>
        <time>2018-05-31T17:10:45Z</time>
      </trkpt>
      <trkpt lat="49.13571" lon="-0.48467">
        <ele>54</ele>
        <time>2018-05-31T17:10:50Z</time>
      </trkpt>
      <trkpt lat="49.13533" lon="-0.48494">
        <ele>53</ele>
        <time>2018-05-31T17:11:05Z</time>
      </trkpt>
      <trkpt lat="49.13499" lon="-0.48538">
        <ele>52</ele>
        <time>2018-05-31T17:11:20Z</time>
      </trkpt>
      <trkpt lat="49.13485" lon="-0.48543">
        <ele>54</ele>
        <time>2018-05-31T17:11:25Z</time>
      </trkpt>
      <trkpt lat="49.13451" lon="-0.48526">
        <ele>55</ele>
        <time>2018-05-31T17:11:40Z</time>
      </trkpt>
      <trkpt lat="49.13434" lon="-0.48509">
        <ele>56</ele>
        <time>2018-05-31T17:11:50Z</time>
      </trkpt>
      <trkpt lat="49.13414" lon="-0.48484">
        <ele>57</ele>
        <time>2018-05-31T17:12:00Z</time>
      </trkpt>
      <trkpt lat="49.13391" lon="-0.48445">
        <ele>59</ele>
        <time>2018-05-31T17:12:15Z</time>
      </trkpt>
      <trkpt lat="49.1338" lon="-0.48444">
        <ele>58</ele>
        <time>2018-05-31T17:12:20Z</time>
      </trkpt>
      <trkpt lat="49.13348" lon="-0.48478">
        <ele>55</ele>
        <time>2018-05-31T17:12:35Z</time>
      </trkpt>
      <trkpt lat="49.13328" lon="-0.48507">
        <ele>56</ele>
        <time>2018-05-31T17:12:45Z</time>
      </trkpt>
      <trkpt lat="49.13327" lon="-0.48522">
        <ele>56</ele>
        <time>2018-05-31T17:12:50Z</time>
      </trkpt>
      <trkpt lat="49.13348" lon="-0.48579">
        <ele>54</ele>
        <time>2018-05-31T17:13:05Z</time>
      </trkpt>
      <trkpt lat="49.13352" lon="-0.4861">
        <ele>53</ele>
        <time>2018-05-31T17:13:10Z</time>
      </trkpt>
      <trkpt lat="49.13334" lon="-0.48707">
        <ele>55</ele>
        <time>2018-05-31T17:13:25Z</time>
      </trkpt>
      <trkpt lat="49.13329" lon="-0.48762">
        <ele>56</ele>
        <time>2018-05-31T17:13:35Z</time>
      </trkpt>
      <trkpt lat="49.13322" lon="-0.48788">
        <ele>58</ele>
        <time>2018-05-31T17:13:40Z</time>
      </trkpt>
      <trkpt lat="49.13314" lon="-0.48814">
        <ele>58</ele>
        <time>2018-05-31T17:13:45Z</time>
      </trkpt>
      <trkpt lat="49.13282" lon="-0.48883">
        <ele>60</ele>
        <time>2018-05-31T17:14:00Z</time>
      </trkpt>
      <trkpt lat="49.13292" lon="-0.48898">
        <ele>58</ele>
        <time>2018-05-31T17:14:05Z</time>
      </trkpt>
      <trkpt lat="49.13329" lon="-0.4896">
        <ele>55</ele>
        <time>2018-05-31T17:14:20Z</time>
      </trkpt>
      <trkpt lat="49.13344" lon="-0.48986">
        <ele>54</ele>
        <time>2018-05-31T17:14:25Z</time>
      </trkpt>
      <trkpt lat="49.13355" lon="-0.49016">
        <ele>52</ele>
        <time>2018-05-31T17:14:30Z</time>
      </trkpt>
      <trkpt lat="49.13369" lon="-0.49088">
        <ele>49</ele>
        <time>2018-05-31T17:14:45Z</time>
      </trkpt>
      <trkpt lat="49.13384" lon="-0.49144">
        <ele>45</ele>
        <time>2018-05-31T17:14:55Z</time>
      </trkpt>
      <trkpt lat="49.13392" lon="-0.49256">
        <ele>39</ele>
        <time>2018-05-31T17:15:10Z</time>
      </trkpt>
      <trkpt lat="49.13396" lon="-0.4928">
        <ele>38</ele>
        <time>2018-05-31T17:15:15Z</time>
      </trkpt>
      <trkpt lat="49.13375" lon="-0.49354">
        <ele>38</ele>
        <time>2018-05-31T17:15:30Z</time>
      </trkpt>
      <trkpt lat="49.13369" lon="-0.4938">
        <ele>39</ele>
        <time>2018-05-31T17:15:35Z</time>
      </trkpt>
      <trkpt lat="49.13368" lon="-0.4942">
        <ele>38</ele>
        <time>2018-05-31T17:15:45Z</time>
      </trkpt>
      <trkpt lat="49.13376" lon="-0.49438">
        <ele>37</ele>
        <time>2018-05-31T17:15:50Z</time>
      </trkpt>
      <trkpt lat="49.134" lon="-0.49463">
        <ele>41</ele>
        <time>2018-05-31T17:16:00Z</time>
      </trkpt>
      <trkpt lat="49.13405" lon="-0.49501">
        <ele>46</ele>
        <time>2018-05-31T17:16:10Z</time>
      </trkpt>
      <trkpt lat="49.1341" lon="-0.49518">
        <ele>48</ele>
        <time>2018-05-31T17:16:15Z</time>
      </trkpt>
      <trkpt lat="49.1342" lon="-0.49579">
        <ele>54</ele>
        <time>2018-05-31T17:16:35Z</time>
      </trkpt>
      <trkpt lat="49.13422" lon="-0.49618">
        <ele>56</ele>
        <time>2018-05-31T17:16:50Z</time>
      </trkpt>
      <trkpt lat="49.13426" lon="-0.49663">
        <ele>57</ele>
        <time>2018-05-31T17:17:05Z</time>
      </trkpt>
      <trkpt lat="49.13424" lon="-0.49695">
        <ele>59</ele>
        <time>2018-05-31T17:17:15Z</time>
      </trkpt>
      <trkpt lat="49.13424" lon="-0.49746">
        <ele>62</ele>
        <time>2018-05-31T17:17:30Z</time>
      </trkpt>
      <trkpt lat="49.13439" lon="-0.4982">
        <ele>65</ele>
        <time>2018-05-31T17:17:50Z</time>
      </trkpt>
      <trkpt lat="49.13449" lon="-0.4988">
        <ele>66</ele>
        <time>2018-05-31T17:18:05Z</time>
      </trkpt>
      <trkpt lat="49.13444" lon="-0.49902">
        <ele>66</ele>
        <time>2018-05-31T17:18:10Z</time>
      </trkpt>
      <trkpt lat="49.13433" lon="-0.49922">
        <ele>66</ele>
        <time>2018-05-31T17:18:15Z</time>
      </trkpt>
      <trkpt lat="49.13406" lon="-0.49972">
        <ele>65</ele>
        <time>2018-05-31T17:18:25Z</time>
      </trkpt>
      <trkpt lat="49.134" lon="-0.49991">
        <ele>64</ele>
        <time>2018-05-31T17:18:30Z</time>
      </trkpt>
      <trkpt lat="49.13379" lon="-0.50029">
        <ele>64</ele>
        <time>2018-05-31T17:18:40Z</time>
      </trkpt>
      <trkpt lat="49.13386" lon="-0.50008">
        <ele>64</ele>
        <time>2018-05-31T17:18:50Z</time>
      </trkpt>
      <trkpt lat="49.13376" lon="-0.49995">
        <ele>64</ele>
        <time>2018-05-31T17:18:55Z</time>
      </trkpt>
      <trkpt lat="49.13331" lon="-0.49996">
        <ele>62</ele>
        <time>2018-05-31T17:19:05Z</time>
      </trkpt>
      <trkpt lat="49.13305" lon="-0.49992">
        <ele>62</ele>
        <time>2018-05-31T17:19:10Z</time>
      </trkpt>
      <trkpt lat="49.1328" lon="-0.49979">
        <ele>62</ele>
        <time>2018-05-31T17:19:15Z</time>
      </trkpt>
      <trkpt lat="49.13203" lon="-0.49921">
        <ele>59</ele>
        <time>2018-05-31T17:19:30Z</time>
      </trkpt>
      <trkpt lat="49.1304" lon="-0.50013">
        <ele>47</ele>
        <time>2018-05-31T17:19:50Z</time>
      </trkpt>
      <trkpt lat="49.13003" lon="-0.50015">
        <ele>42</ele>
        <time>2018-05-31T17:19:55Z</time>
      </trkpt>
      <trkpt lat="49.12994" lon="-0.49968">
        <ele>42</ele>
        <time>2018-05-31T17:20:00Z</time>
      </trkpt>
      <trkpt lat="49.13038" lon="-0.49893">
        <ele>43</ele>
        <time>2018-05-31T17:20:15Z</time>
      </trkpt>
      <trkpt lat="49.13032" lon="-0.49893">
        <ele>43</ele>
        <time>2018-05-31T17:20:20Z</time>
      </trkpt>
      <trkpt lat="49.12987" lon="-0.49917">
        <ele>48</ele>
        <time>2018-05-31T17:20:40Z</time>
      </trkpt>
      <trkpt lat="49.12963" lon="-0.49923">
        <ele>49</ele>
        <time>2018-05-31T17:20:55Z</time>
      </trkpt>
      <trkpt lat="49.12958" lon="-0.49924">
        <ele>49</ele>
        <time>2018-05-31T17:21:00Z</time>
      </trkpt>
      <trkpt lat="49.12918" lon="-0.49937">
        <ele>50</ele>
        <time>2018-05-31T17:21:20Z</time>
      </trkpt>
      <trkpt lat="49.12898" lon="-0.49952">
        <ele>52</ele>
        <time>2018-05-31T17:21:30Z</time>
      </trkpt>
      <trkpt lat="49.12888" lon="-0.49962">
        <ele>53</ele>
        <time>2018-05-31T17:21:35Z</time>
      </trkpt>
      <trkpt lat="49.12879" lon="-0.49976">
        <ele>53</ele>
        <time>2018-05-31T17:21:40Z</time>
      </trkpt>
      <trkpt lat="49.12859" lon="-0.50024">
        <ele>53</ele>
        <time>2018-05-31T17:21:55Z</time>
      </trkpt>
      <trkpt lat="49.12852" lon="-0.5004">
        <ele>53</ele>
        <time>2018-05-31T17:22:00Z</time>
      </trkpt>
      <trkpt lat="49.12846" lon="-0.50057">
        <ele>54</ele>
        <time>2018-05-31T17:22:05Z</time>
      </trkpt>
      <trkpt lat="49.12827" lon="-0.50125">
        <ele>56</ele>
        <time>2018-05-31T17:22:25Z</time>
      </trkpt>
      <trkpt lat="49.1281" lon="-0.50166">
        <ele>56</ele>
        <time>2018-05-31T17:22:40Z</time>
      </trkpt>
      <trkpt lat="49.12811" lon="-0.50177">
        <ele>55</ele>
        <time>2018-05-31T17:22:45Z</time>
      </trkpt>
      <trkpt lat="49.12809" lon="-0.50196">
        <ele>53</ele>
        <time>2018-05-31T17:22:50Z</time>
      </trkpt>
      <trkpt lat="49.128" lon="-0.50238">
        <ele>54</ele>
        <time>2018-05-31T17:23:05Z</time>
      </trkpt>
      <trkpt lat="49.128" lon="-0.50273">
        <ele>52</ele>
        <time>2018-05-31T17:23:20Z</time>
      </trkpt>
      <trkpt lat="49.12794" lon="-0.50311">
        <ele>51</ele>
        <time>2018-05-31T17:23:35Z</time>
      </trkpt>
      <trkpt lat="49.12779" lon="-0.50344">
        <ele>55</ele>
        <time>2018-05-31T17:23:45Z</time>
      </trkpt>
      <trkpt lat="49.12773" lon="-0.50362">
        <ele>55</ele>
        <time>2018-05-31T17:23:50Z</time>
      </trkpt>
      <trkpt lat="49.12747" lon="-0.5041">
        <ele>61</ele>
        <time>2018-05-31T17:24:05Z</time>
      </trkpt>
      <trkpt lat="49.12732" lon="-0.50445">
        <ele>60</ele>
        <time>2018-05-31T17:24:15Z</time>
      </trkpt>
      <trkpt lat="49.12722" lon="-0.50461">
        <ele>59</ele>
        <time>2018-05-31T17:24:20Z</time>
      </trkpt>
      <trkpt lat="49.12707" lon="-0.50489">
        <ele>58</ele>
        <time>2018-05-31T17:24:30Z</time>
      </trkpt>
      <trkpt lat="49.12696" lon="-0.50497">
        <ele>59</ele>
        <time>2018-05-31T17:24:40Z</time>
      </trkpt>
      <trkpt lat="49.12692" lon="-0.50506">
        <ele>57</ele>
        <time>2018-05-31T17:24:50Z</time>
      </trkpt>
      <trkpt lat="49.12689" lon="-0.50512">
        <ele>56</ele>
        <time>2018-05-31T17:25:20Z</time>
      </trkpt>
      <trkpt lat="49.12658" lon="-0.50543">
        <ele>57</ele>
        <time>2018-05-31T17:25:35Z</time>
      </trkpt>
      <trkpt lat="49.12646" lon="-0.50558">
        <ele>59</ele>
        <time>2018-05-31T17:25:40Z</time>
      </trkpt>
      <trkpt lat="49.12638" lon="-0.5057">
        <ele>59</ele>
        <time>2018-05-31T17:25:45Z</time>
      </trkpt>
      <trkpt lat="49.12627" lon="-0.50589">
        <ele>57</ele>
        <time>2018-05-31T17:25:50Z</time>
      </trkpt>
      <trkpt lat="49.12615" lon="-0.50601">
        <ele>56</ele>
        <time>2018-05-31T17:25:55Z</time>
      </trkpt>
      <trkpt lat="49.12583" lon="-0.50646">
        <ele>55</ele>
        <time>2018-05-31T17:26:10Z</time>
      </trkpt>
      <trkpt lat="49.12545" lon="-0.5069">
        <ele>56</ele>
        <time>2018-05-31T17:26:25Z</time>
      </trkpt>
      <trkpt lat="49.12527" lon="-0.50724">
        <ele>56</ele>
        <time>2018-05-31T17:26:35Z</time>
      </trkpt>
      <trkpt lat="49.12512" lon="-0.50758">
        <ele>54</ele>
        <time>2018-05-31T17:26:45Z</time>
      </trkpt>
      <trkpt lat="49.12486" lon="-0.50798">
        <ele>56</ele>
        <time>2018-05-31T17:26:55Z</time>
      </trkpt>
      <trkpt lat="49.1247" lon="-0.50811">
        <ele>56</ele>
        <time>2018-05-31T17:27:00Z</time>
      </trkpt>
      <trkpt lat="49.12433" lon="-0.50833">
        <ele>61</ele>
        <time>2018-05-31T17:27:10Z</time>
      </trkpt>
      <trkpt lat="49.12392" lon="-0.50874">
        <ele>61</ele>
        <time>2018-05-31T17:27:20Z</time>
      </trkpt>
      <trkpt lat="49.12377" lon="-0.50902">
        <ele>58</ele>
        <time>2018-05-31T17:27:25Z</time>
      </trkpt>
      <trkpt lat="49.12369" lon="-0.50939">
        <ele>53</ele>
        <time>2018-05-31T17:27:30Z</time>
      </trkpt>
      <trkpt lat="49.12357" lon="-0.51021">
        <ele>50</ele>
        <time>2018-05-31T17:27:45Z</time>
      </trkpt>
      <trkpt lat="49.12354" lon="-0.51077">
        <ele>52</ele>
        <time>2018-05-31T17:28:00Z</time>
      </trkpt>
      <trkpt lat="49.12346" lon="-0.51082">
        <ele>53</ele>
        <time>2018-05-31T17:28:05Z</time>
      </trkpt>
      <trkpt lat="49.12312" lon="-0.51111">
        <ele>60</ele>
        <time>2018-05-31T17:28:25Z</time>
      </trkpt>
      <trkpt lat="49.12299" lon="-0.51138">
        <ele>63</ele>
        <time>2018-05-31T17:28:40Z</time>
      </trkpt>
      <trkpt lat="49.12277" lon="-0.51194">
        <ele>65</ele>
        <time>2018-05-31T17:29:00Z</time>
      </trkpt>
      <trkpt lat="49.12261" lon="-0.51207">
        <ele>65</ele>
        <time>2018-05-31T17:29:05Z</time>
      </trkpt>
      <trkpt lat="49.12248" lon="-0.51208">
        <ele>65</ele>
        <time>2018-05-31T17:29:10Z</time>
      </trkpt>
      <trkpt lat="49.12237" lon="-0.51199">
        <ele>66</ele>
        <time>2018-05-31T17:29:15Z</time>
      </trkpt>
      <trkpt lat="49.12216" lon="-0.51182">
        <ele>66</ele>
        <time>2018-05-31T17:29:25Z</time>
      </trkpt>
      <trkpt lat="49.12205" lon="-0.51171">
        <ele>66</ele>
        <time>2018-05-31T17:29:30Z</time>
      </trkpt>
      <trkpt lat="49.12146" lon="-0.51118">
        <ele>69</ele>
        <time>2018-05-31T17:29:55Z</time>
      </trkpt>
      <trkpt lat="49.1212" lon="-0.51092">
        <ele>71</ele>
        <time>2018-05-31T17:30:05Z</time>
      </trkpt>
      <trkpt lat="49.12108" lon="-0.51082">
        <ele>72</ele>
        <time>2018-05-31T17:30:10Z</time>
      </trkpt>
      <trkpt lat="49.12098" lon="-0.51085">
        <ele>73</ele>
        <time>2018-05-31T17:30:15Z</time>
      </trkpt>
      <trkpt lat="49.1208" lon="-0.51122">
        <ele>73</ele>
        <time>2018-05-31T17:30:25Z</time>
      </trkpt>
      <trkpt lat="49.12043" lon="-0.51136">
        <ele>73</ele>
        <time>2018-05-31T17:30:35Z</time>
      </trkpt>
      <trkpt lat="49.12026" lon="-0.51131">
        <ele>74</ele>
        <time>2018-05-31T17:30:40Z</time>
      </trkpt>
      <trkpt lat="49.11975" lon="-0.51076">
        <ele>77</ele>
        <time>2018-05-31T17:31:00Z</time>
      </trkpt>
      <trkpt lat="49.11943" lon="-0.51056">
        <ele>79</ele>
        <time>2018-05-31T17:31:15Z</time>
      </trkpt>
      <trkpt lat="49.1193" lon="-0.51071">
        <ele>78</ele>
        <time>2018-05-31T17:31:20Z</time>
      </trkpt>
      <trkpt lat="49.11897" lon="-0.5117">
        <ele>78</ele>
        <time>2018-05-31T17:31:40Z</time>
      </trkpt>
      <trkpt lat="49.11886" lon="-0.51189">
        <ele>79</ele>
        <time>2018-05-31T17:31:45Z</time>
      </trkpt>
      <trkpt lat="49.11872" lon="-0.51188">
        <ele>80</ele>
        <time>2018-05-31T17:31:50Z</time>
      </trkpt>
      <trkpt lat="49.11807" lon="-0.51143">
        <ele>83</ele>
        <time>2018-05-31T17:32:10Z</time>
      </trkpt>
      <trkpt lat="49.11793" lon="-0.51131">
        <ele>84</ele>
        <time>2018-05-31T17:32:15Z</time>
      </trkpt>
      <trkpt lat="49.11781" lon="-0.51082">
        <ele>85</ele>
        <time>2018-05-31T17:32:25Z</time>
      </trkpt>
      <trkpt lat="49.11738" lon="-0.51022">
        <ele>88</ele>
        <time>2018-05-31T17:32:40Z</time>
      </trkpt>
      <trkpt lat="49.11725" lon="-0.51001">
        <ele>90</ele>
        <time>2018-05-31T17:32:45Z</time>
      </trkpt>
      <trkpt lat="49.11649" lon="-0.5087">
        <ele>96</ele>
        <time>2018-05-31T17:33:15Z</time>
      </trkpt>
      <trkpt lat="49.11635" lon="-0.50848">
        <ele>98</ele>
        <time>2018-05-31T17:33:20Z</time>
      </trkpt>
      <trkpt lat="49.11607" lon="-0.50807">
        <ele>98</ele>
        <time>2018-05-31T17:33:30Z</time>
      </trkpt>
      <trkpt lat="49.11595" lon="-0.50787">
        <ele>99</ele>
        <time>2018-05-31T17:33:35Z</time>
      </trkpt>
      <trkpt lat="49.11567" lon="-0.50755">
        <ele>100</ele>
        <time>2018-05-31T17:33:45Z</time>
      </trkpt>
      <trkpt lat="49.11519" lon="-0.50694">
        <ele>101</ele>
        <time>2018-05-31T17:34:00Z</time>
      </trkpt>
      <trkpt lat="49.11475" lon="-0.50631">
        <ele>103</ele>
        <time>2018-05-31T17:34:15Z</time>
      </trkpt>
      <trkpt lat="49.11458" lon="-0.50583">
        <ele>103</ele>
        <time>2018-05-31T17:34:25Z</time>
      </trkpt>
      <trkpt lat="49.11453" lon="-0.50558">
        <ele>103</ele>
        <time>2018-05-31T17:34:30Z</time>
      </trkpt>
      <trkpt lat="49.1145" lon="-0.50531">
        <ele>103</ele>
        <time>2018-05-31T17:34:35Z</time>
      </trkpt>
      <trkpt lat="49.11438" lon="-0.50438">
        <ele>103</ele>
        <time>2018-05-31T17:34:50Z</time>
      </trkpt>
      <trkpt lat="49.11434" lon="-0.50404">
        <ele>103</ele>
        <time>2018-05-31T17:34:55Z</time>
      </trkpt>
      <trkpt lat="49.1143" lon="-0.50371">
        <ele>103</ele>
        <time>2018-05-31T17:35:00Z</time>
      </trkpt>
      <trkpt lat="49.11425" lon="-0.50336">
        <ele>103</ele>
        <time>2018-05-31T17:35:05Z</time>
      </trkpt>
      <trkpt lat="49.11416" lon="-0.50263">
        <ele>104</ele>
        <time>2018-05-31T17:35:15Z</time>
      </trkpt>
      <trkpt lat="49.11402" lon="-0.50154">
        <ele>104</ele>
        <time>2018-05-31T17:35:30Z</time>
      </trkpt>
      <trkpt lat="49.11383" lon="-0.50004">
        <ele>104</ele>
        <time>2018-05-31T17:35:50Z</time>
      </trkpt>
      <trkpt lat="49.11373" lon="-0.49927">
        <ele>104</ele>
        <time>2018-05-31T17:36:00Z</time>
      </trkpt>
      <trkpt lat="49.11364" lon="-0.49852">
        <ele>104</ele>
        <time>2018-05-31T17:36:10Z</time>
      </trkpt>
      <trkpt lat="49.11362" lon="-0.4982">
        <ele>103</ele>
        <time>2018-05-31T17:36:15Z</time>
      </trkpt>
      <trkpt lat="49.11349" lon="-0.49725">
        <ele>102</ele>
        <time>2018-05-31T17:36:30Z</time>
      </trkpt>
      <trkpt lat="49.11348" lon="-0.4967">
        <ele>102</ele>
        <time>2018-05-31T17:36:40Z</time>
      </trkpt>
      <trkpt lat="49.11348" lon="-0.49635">
        <ele>101</ele>
        <time>2018-05-31T17:36:45Z</time>
      </trkpt>
      <trkpt lat="49.11354" lon="-0.49488">
        <ele>99</ele>
        <time>2018-05-31T17:37:05Z</time>
      </trkpt>
      <trkpt lat="49.11356" lon="-0.49425">
        <ele>99</ele>
        <time>2018-05-31T17:37:15Z</time>
      </trkpt>
      <trkpt lat="49.11356" lon="-0.49423">
        <ele>99</ele>
        <time>2018-05-31T17:37:25Z</time>
      </trkpt>
      <trkpt lat="49.11356" lon="-0.49423">
        <ele>99</ele>
        <time>2018-05-31T17:37:35Z</time>
      </trkpt>
      <trkpt lat="49.11355" lon="-0.49388">
        <ele>98</ele>
        <time>2018-05-31T17:37:55Z</time>
      </trkpt>
      <trkpt lat="49.11355" lon="-0.49323">
        <ele>97</ele>
        <time>2018-05-31T17:38:05Z</time>
      </trkpt>
      <trkpt lat="49.11356" lon="-0.49245">
        <ele>97</ele>
        <time>2018-05-31T17:38:15Z</time>
      </trkpt>
      <trkpt lat="49.11356" lon="-0.49166">
        <ele>96</ele>
        <time>2018-05-31T17:38:25Z</time>
      </trkpt>
      <trkpt lat="49.11353" lon="-0.49126">
        <ele>95</ele>
        <time>2018-05-31T17:38:30Z</time>
      </trkpt>
      <trkpt lat="49.11342" lon="-0.49048">
        <ele>95</ele>
        <time>2018-05-31T17:38:40Z</time>
      </trkpt>
      <trkpt lat="49.11341" lon="-0.48971">
        <ele>94</ele>
        <time>2018-05-31T17:38:50Z</time>
      </trkpt>
      <trkpt lat="49.11349" lon="-0.48935">
        <ele>94</ele>
        <time>2018-05-31T17:38:55Z</time>
      </trkpt>
      <trkpt lat="49.11366" lon="-0.48874">
        <ele>94</ele>
        <time>2018-05-31T17:39:05Z</time>
      </trkpt>
      <trkpt lat="49.11386" lon="-0.48818">
        <ele>93</ele>
        <time>2018-05-31T17:39:15Z</time>
      </trkpt>
      <trkpt lat="49.11397" lon="-0.48785">
        <ele>92</ele>
        <time>2018-05-31T17:39:20Z</time>
      </trkpt>
      <trkpt lat="49.11434" lon="-0.48674">
        <ele>91</ele>
        <time>2018-05-31T17:39:35Z</time>
      </trkpt>
      <trkpt lat="49.11458" lon="-0.48602">
        <ele>90</ele>
        <time>2018-05-31T17:39:45Z</time>
      </trkpt>
      <trkpt lat="49.11503" lon="-0.48459">
        <ele>87</ele>
        <time>2018-05-31T17:40:05Z</time>
      </trkpt>
      <trkpt lat="49.11534" lon="-0.48389">
        <ele>86</ele>
        <time>2018-05-31T17:40:15Z</time>
      </trkpt>
      <trkpt lat="49.11585" lon="-0.48299">
        <ele>86</ele>
        <time>2018-05-31T17:40:30Z</time>
      </trkpt>
      <trkpt lat="49.11612" lon="-0.48229">
        <ele>86</ele>
        <time>2018-05-31T17:40:40Z</time>
      </trkpt>
      <trkpt lat="49.11624" lon="-0.48192">
        <ele>86</ele>
        <time>2018-05-31T17:40:45Z</time>
      </trkpt>
      <trkpt lat="49.11636" lon="-0.48153">
        <ele>85</ele>
        <time>2018-05-31T17:40:50Z</time>
      </trkpt>
      <trkpt lat="49.11665" lon="-0.48046">
        <ele>86</ele>
        <time>2018-05-31T17:41:05Z</time>
      </trkpt>
      <trkpt lat="49.11672" lon="-0.47984">
        <ele>85</ele>
        <time>2018-05-31T17:41:15Z</time>
      </trkpt>
      <trkpt lat="49.11672" lon="-0.47958">
        <ele>84</ele>
        <time>2018-05-31T17:41:30Z</time>
      </trkpt>
      <trkpt lat="49.11671" lon="-0.47958">
        <ele>84</ele>
        <time>2018-05-31T17:41:40Z</time>
      </trkpt>
      <trkpt lat="49.11671" lon="-0.47957">
        <ele>84</ele>
        <time>2018-05-31T17:41:55Z</time>
      </trkpt>
      <trkpt lat="49.11662" lon="-0.47965">
        <ele>84</ele>
        <time>2018-05-31T17:42:00Z</time>
      </trkpt>
      <trkpt lat="49.11626" lon="-0.48009">
        <ele>83</ele>
        <time>2018-05-31T17:42:10Z</time>
      </trkpt>
      <trkpt lat="49.11606" lon="-0.48034">
        <ele>83</ele>
        <time>2018-05-31T17:42:15Z</time>
      </trkpt>
      <trkpt lat="49.11585" lon="-0.48058">
        <ele>83</ele>
        <time>2018-05-31T17:42:20Z</time>
      </trkpt>
      <trkpt lat="49.115" lon="-0.48164">
        <ele>84</ele>
        <time>2018-05-31T17:42:40Z</time>
      </trkpt>
      <trkpt lat="49.11471" lon="-0.482">
        <ele>86</ele>
        <time>2018-05-31T17:42:50Z</time>
      </trkpt>
      <trkpt lat="49.11461" lon="-0.48189">
        <ele>85</ele>
        <time>2018-05-31T17:42:55Z</time>
      </trkpt>
      <trkpt lat="49.11449" lon="-0.48159">
        <ele>85</ele>
        <time>2018-05-31T17:43:00Z</time>
      </trkpt>
      <trkpt lat="49.11408" lon="-0.48068">
        <ele>84</ele>
        <time>2018-05-31T17:43:15Z</time>
      </trkpt>
      <trkpt lat="49.11345" lon="-0.47939">
        <ele>83</ele>
        <time>2018-05-31T17:43:35Z</time>
      </trkpt>
      <trkpt lat="49.11324" lon="-0.47916">
        <ele>83</ele>
        <time>2018-05-31T17:43:40Z</time>
      </trkpt>
      <trkpt lat="49.11302" lon="-0.4791">
        <ele>83</ele>
        <time>2018-05-31T17:43:50Z</time>
      </trkpt>
      <trkpt lat="49.11328" lon="-0.4792">
        <ele>83</ele>
        <time>2018-05-31T17:44:00Z</time>
      </trkpt>
      <trkpt lat="49.11337" lon="-0.47906">
        <ele>82</ele>
        <time>2018-05-31T17:44:05Z</time>
      </trkpt>
      <trkpt lat="49.11351" lon="-0.47812">
        <ele>79</ele>
        <time>2018-05-31T17:44:20Z</time>
      </trkpt>
      <trkpt lat="49.11351" lon="-0.4773">
        <ele>76</ele>
        <time>2018-05-31T17:44:30Z</time>
      </trkpt>
      <trkpt lat="49.11344" lon="-0.4764">
        <ele>72</ele>
        <time>2018-05-31T17:44:40Z</time>
      </trkpt>
      <trkpt lat="49.11296" lon="-0.47517">
        <ele>65</ele>
        <time>2018-05-31T17:44:55Z</time>
      </trkpt>
      <trkpt lat="49.11279" lon="-0.47408">
        <ele>70</ele>
        <time>2018-05-31T17:45:10Z</time>
      </trkpt>
      <trkpt lat="49.11258" lon="-0.4734">
        <ele>75</ele>
        <time>2018-05-31T17:45:25Z</time>
      </trkpt>
      <trkpt lat="49.11226" lon="-0.47379">
        <ele>74</ele>
        <time>2018-05-31T17:45:35Z</time>
      </trkpt>
      <trkpt lat="49.11202" lon="-0.47403">
        <ele>74</ele>
        <time>2018-05-31T17:45:40Z</time>
      </trkpt>
      <trkpt lat="49.11145" lon="-0.47441">
        <ele>71</ele>
        <time>2018-05-31T17:45:50Z</time>
      </trkpt>
      <trkpt lat="49.11069" lon="-0.47456">
        <ele>65</ele>
        <time>2018-05-31T17:46:00Z</time>
      </trkpt>
      <trkpt lat="49.10972" lon="-0.47445">
        <ele>59</ele>
        <time>2018-05-31T17:46:10Z</time>
      </trkpt>
      <trkpt lat="49.1088" lon="-0.47423">
        <ele>57</ele>
        <time>2018-05-31T17:46:20Z</time>
      </trkpt>
      <trkpt lat="49.10804" lon="-0.47403">
        <ele>55</ele>
        <time>2018-05-31T17:46:30Z</time>
      </trkpt>
      <trkpt lat="49.10781" lon="-0.47376">
        <ele>56</ele>
        <time>2018-05-31T17:46:35Z</time>
      </trkpt>
      <trkpt lat="49.10694" lon="-0.4723">
        <ele>53</ele>
        <time>2018-05-31T17:46:55Z</time>
      </trkpt>
      <trkpt lat="49.10633" lon="-0.47207">
        <ele>53</ele>
        <time>2018-05-31T17:47:10Z</time>
      </trkpt>
      <trkpt lat="49.10574" lon="-0.47121">
        <ele>54</ele>
        <time>2018-05-31T17:47:25Z</time>
      </trkpt>
      <trkpt lat="49.10549" lon="-0.47114">
        <ele>55</ele>
        <time>2018-05-31T17:47:30Z</time>
      </trkpt>
      <trkpt lat="49.10464" lon="-0.47177">
        <ele>60</ele>
        <time>2018-05-31T17:47:50Z</time>
      </trkpt>
      <trkpt lat="49.10443" lon="-0.47187">
        <ele>61</ele>
        <time>2018-05-31T17:47:55Z</time>
      </trkpt>
      <trkpt lat="49.10406" lon="-0.47186">
        <ele>62</ele>
        <time>2018-05-31T17:48:05Z</time>
      </trkpt>
      <trkpt lat="49.10387" lon="-0.47142">
        <ele>65</ele>
        <time>2018-05-31T17:48:15Z</time>
      </trkpt>
      <trkpt lat="49.10376" lon="-0.4712">
        <ele>67</ele>
        <time>2018-05-31T17:48:20Z</time>
      </trkpt>
      <trkpt lat="49.10323" lon="-0.47041">
        <ele>71</ele>
        <time>2018-05-31T17:48:40Z</time>
      </trkpt>
      <trkpt lat="49.1031" lon="-0.47016">
        <ele>71</ele>
        <time>2018-05-31T17:48:45Z</time>
      </trkpt>
      <trkpt lat="49.10298" lon="-0.46988">
        <ele>71</ele>
        <time>2018-05-31T17:48:50Z</time>
      </trkpt>
      <trkpt lat="49.10252" lon="-0.46875">
        <ele>73</ele>
        <time>2018-05-31T17:49:10Z</time>
      </trkpt>
      <trkpt lat="49.10211" lon="-0.46772">
        <ele>72</ele>
        <time>2018-05-31T17:49:25Z</time>
      </trkpt>
      <trkpt lat="49.10195" lon="-0.46737">
        <ele>73</ele>
        <time>2018-05-31T17:49:30Z</time>
      </trkpt>
      <trkpt lat="49.10144" lon="-0.467">
        <ele>73</ele>
        <time>2018-05-31T17:49:40Z</time>
      </trkpt>
      <trkpt lat="49.1013" lon="-0.46663">
        <ele>72</ele>
        <time>2018-05-31T17:49:45Z</time>
      </trkpt>
      <trkpt lat="49.10088" lon="-0.46488">
        <ele>59</ele>
        <time>2018-05-31T17:50:00Z</time>
      </trkpt>
      <trkpt lat="49.10082" lon="-0.46426">
        <ele>58</ele>
        <time>2018-05-31T17:50:05Z</time>
      </trkpt>
      <trkpt lat="49.1009" lon="-0.46342">
        <ele>62</ele>
        <time>2018-05-31T17:50:15Z</time>
      </trkpt>
      <trkpt lat="49.10105" lon="-0.46237">
        <ele>64</ele>
        <time>2018-05-31T17:50:30Z</time>
      </trkpt>
      <trkpt lat="49.101" lon="-0.46159">
        <ele>63</ele>
        <time>2018-05-31T17:50:40Z</time>
      </trkpt>
      <trkpt lat="49.10092" lon="-0.46121">
        <ele>63</ele>
        <time>2018-05-31T17:50:45Z</time>
      </trkpt>
      <trkpt lat="49.10074" lon="-0.46046">
        <ele>65</ele>
        <time>2018-05-31T17:50:55Z</time>
      </trkpt>
      <trkpt lat="49.10043" lon="-0.45935">
        <ele>65</ele>
        <time>2018-05-31T17:51:10Z</time>
      </trkpt>
      <trkpt lat="49.0999" lon="-0.45801">
        <ele>68</ele>
        <time>2018-05-31T17:51:35Z</time>
      </trkpt>
      <trkpt lat="49.09978" lon="-0.45771">
        <ele>68</ele>
        <time>2018-05-31T17:51:40Z</time>
      </trkpt>
      <trkpt lat="49.09994" lon="-0.45745">
        <ele>67</ele>
        <time>2018-05-31T17:51:45Z</time>
      </trkpt>
      <trkpt lat="49.10059" lon="-0.4571">
        <ele>62</ele>
        <time>2018-05-31T17:51:55Z</time>
      </trkpt>
      <trkpt lat="49.10086" lon="-0.45604">
        <ele>60</ele>
        <time>2018-05-31T17:52:05Z</time>
      </trkpt>
      <trkpt lat="49.10079" lon="-0.45546">
        <ele>59</ele>
        <time>2018-05-31T17:52:10Z</time>
      </trkpt>
      <trkpt lat="49.10067" lon="-0.45491">
        <ele>60</ele>
        <time>2018-05-31T17:52:15Z</time>
      </trkpt>
      <trkpt lat="49.09982" lon="-0.45334">
        <ele>66</ele>
        <time>2018-05-31T17:52:40Z</time>
      </trkpt>
      <trkpt lat="49.09973" lon="-0.453">
        <ele>67</ele>
        <time>2018-05-31T17:52:45Z</time>
      </trkpt>
      <trkpt lat="49.09972" lon="-0.45172">
        <ele>65</ele>
        <time>2018-05-31T17:53:00Z</time>
      </trkpt>
      <trkpt lat="49.09946" lon="-0.44982">
        <ele>64</ele>
        <time>2018-05-31T17:53:20Z</time>
      </trkpt>
      <trkpt lat="49.0994" lon="-0.44928">
        <ele>64</ele>
        <time>2018-05-31T17:53:25Z</time>
      </trkpt>
      <trkpt lat="49.09943" lon="-0.44874">
        <ele>63</ele>
        <time>2018-05-31T17:53:30Z</time>
      </trkpt>
      <trkpt lat="49.0996" lon="-0.44766">
        <ele>63</ele>
        <time>2018-05-31T17:53:40Z</time>
      </trkpt>
      <trkpt lat="49.09982" lon="-0.44656">
        <ele>62</ele>
        <time>2018-05-31T17:53:50Z</time>
      </trkpt>
      <trkpt lat="49.10034" lon="-0.44429">
        <ele>57</ele>
        <time>2018-05-31T17:54:10Z</time>
      </trkpt>
      <trkpt lat="49.10061" lon="-0.44309">
        <ele>53</ele>
        <time>2018-05-31T17:54:20Z</time>
      </trkpt>
      <trkpt lat="49.101" lon="-0.44187">
        <ele>49</ele>
        <time>2018-05-31T17:54:30Z</time>
      </trkpt>
      <trkpt lat="49.10135" lon="-0.44007">
        <ele>41</ele>
        <time>2018-05-31T17:54:45Z</time>
      </trkpt>
      <trkpt lat="49.10166" lon="-0.43943">
        <ele>40</ele>
        <time>2018-05-31T17:54:55Z</time>
      </trkpt>
      <trkpt lat="49.1015" lon="-0.43936">
        <ele>42</ele>
        <time>2018-05-31T17:55:00Z</time>
      </trkpt>
      <trkpt lat="49.10133" lon="-0.43929">
        <ele>43</ele>
        <time>2018-05-31T17:55:05Z</time>
      </trkpt>
      <trkpt lat="49.10097" lon="-0.4392">
        <ele>45</ele>
        <time>2018-05-31T17:55:15Z</time>
      </trkpt>
      <trkpt lat="49.10078" lon="-0.43914">
        <ele>46</ele>
        <time>2018-05-31T17:55:20Z</time>
      </trkpt>
      <trkpt lat="49.10069" lon="-0.43901">
        <ele>46</ele>
        <time>2018-05-31T17:55:25Z</time>
      </trkpt>
      <trkpt lat="49.10069" lon="-0.4385">
        <ele>47</ele>
        <time>2018-05-31T17:55:35Z</time>
      </trkpt>
      <trkpt lat="49.10068" lon="-0.43821">
        <ele>47</ele>
        <time>2018-05-31T17:55:40Z</time>
      </trkpt>
      <trkpt lat="49.10063" lon="-0.43756">
        <ele>48</ele>
        <time>2018-05-31T17:55:50Z</time>
      </trkpt>
      <trkpt lat="49.10058" lon="-0.43721">
        <ele>48</ele>
        <time>2018-05-31T17:55:55Z</time>
      </trkpt>
      <trkpt lat="49.10048" lon="-0.43647">
        <ele>49</ele>
        <time>2018-05-31T17:56:05Z</time>
      </trkpt>
      <trkpt lat="49.10036" lon="-0.43538">
        <ele>51</ele>
        <time>2018-05-31T17:56:20Z</time>
      </trkpt>
      <trkpt lat="49.10032" lon="-0.43502">
        <ele>51</ele>
        <time>2018-05-31T17:56:25Z</time>
      </trkpt>
      <trkpt lat="49.10029" lon="-0.43465">
        <ele>51</ele>
        <time>2018-05-31T17:56:30Z</time>
      </trkpt>
      <trkpt lat="49.10021" lon="-0.43357">
        <ele>52</ele>
        <time>2018-05-31T17:56:45Z</time>
      </trkpt>
      <trkpt lat="49.1001" lon="-0.43213">
        <ele>54</ele>
        <time>2018-05-31T17:57:05Z</time>
      </trkpt>
      <trkpt lat="49.10007" lon="-0.43178">
        <ele>55</ele>
        <time>2018-05-31T17:57:10Z</time>
      </trkpt>
      <trkpt lat="49.09994" lon="-0.43036">
        <ele>57</ele>
        <time>2018-05-31T17:57:30Z</time>
      </trkpt>
      <trkpt lat="49.0998" lon="-0.42891">
        <ele>59</ele>
        <time>2018-05-31T17:57:50Z</time>
      </trkpt>
      <trkpt lat="49.09965" lon="-0.42778">
        <ele>58</ele>
        <time>2018-05-31T17:58:05Z</time>
      </trkpt>
      <trkpt lat="49.0996" lon="-0.4275">
        <ele>58</ele>
        <time>2018-05-31T17:58:10Z</time>
      </trkpt>
      <trkpt lat="49.10003" lon="-0.42722">
        <ele>57</ele>
        <time>2018-05-31T17:58:20Z</time>
      </trkpt>
      <trkpt lat="49.10104" lon="-0.42691">
        <ele>54</ele>
        <time>2018-05-31T17:58:35Z</time>
      </trkpt>
      <trkpt lat="49.10175" lon="-0.42664">
        <ele>51</ele>
        <time>2018-05-31T17:58:45Z</time>
      </trkpt>
      <trkpt lat="49.10213" lon="-0.42654">
        <ele>49</ele>
        <time>2018-05-31T17:58:50Z</time>
      </trkpt>
      <trkpt lat="49.10313" lon="-0.42632">
        <ele>42</ele>
        <time>2018-05-31T17:59:05Z</time>
      </trkpt>
      <trkpt lat="49.10337" lon="-0.42657">
        <ele>40</ele>
        <time>2018-05-31T17:59:10Z</time>
      </trkpt>
      <trkpt lat="49.1036" lon="-0.42734">
        <ele>32</ele>
        <time>2018-05-31T17:59:20Z</time>
      </trkpt>
      <trkpt lat="49.10412" lon="-0.4269">
        <ele>27</ele>
        <time>2018-05-31T17:59:40Z</time>
      </trkpt>
      <trkpt lat="49.10425" lon="-0.42671">
        <ele>27</ele>
        <time>2018-05-31T17:59:45Z</time>
      </trkpt>
      <trkpt lat="49.10445" lon="-0.42626">
        <ele>30</ele>
        <time>2018-05-31T17:59:55Z</time>
      </trkpt>
      <trkpt lat="49.10445" lon="-0.42584">
        <ele>28</ele>
        <time>2018-05-31T18:00:00Z</time>
      </trkpt>
      <trkpt lat="49.10439" lon="-0.42483">
        <ele>24</ele>
        <time>2018-05-31T18:00:10Z</time>
      </trkpt>
      <trkpt lat="49.10434" lon="-0.42448">
        <ele>24</ele>
        <time>2018-05-31T18:00:15Z</time>
      </trkpt>
      <trkpt lat="49.10433" lon="-0.42418">
        <ele>24</ele>
        <time>2018-05-31T18:00:20Z</time>
      </trkpt>
      <trkpt lat="49.10422" lon="-0.4239">
        <ele>24</ele>
        <time>2018-05-31T18:00:25Z</time>
      </trkpt>
      <trkpt lat="49.10407" lon="-0.42363">
        <ele>24</ele>
        <time>2018-05-31T18:00:30Z</time>
      </trkpt>
      <trkpt lat="49.10352" lon="-0.42254">
        <ele>24</ele>
        <time>2018-05-31T18:00:50Z</time>
      </trkpt>
      <trkpt lat="49.10314" lon="-0.42199">
        <ele>24</ele>
        <time>2018-05-31T18:01:00Z</time>
      </trkpt>
      <trkpt lat="49.10256" lon="-0.42134">
        <ele>25</ele>
        <time>2018-05-31T18:01:15Z</time>
      </trkpt>
      <trkpt lat="49.10247" lon="-0.42128">
        <ele>26</ele>
        <time>2018-05-31T18:01:25Z</time>
      </trkpt>
      <trkpt lat="49.10225" lon="-0.4209">
        <ele>26</ele>
        <time>2018-05-31T18:01:35Z</time>
      </trkpt>
      <trkpt lat="49.10205" lon="-0.42029">
        <ele>28</ele>
        <time>2018-05-31T18:01:45Z</time>
      </trkpt>
      <trkpt lat="49.10201" lon="-0.41938">
        <ele>30</ele>
        <time>2018-05-31T18:02:00Z</time>
      </trkpt>
      <trkpt lat="49.10197" lon="-0.4192">
        <ele>30</ele>
        <time>2018-05-31T18:02:05Z</time>
      </trkpt>
      <trkpt lat="49.10164" lon="-0.41837">
        <ele>26</ele>
        <time>2018-05-31T18:02:20Z</time>
      </trkpt>
      <trkpt lat="49.10133" lon="-0.4177">
        <ele>25</ele>
        <time>2018-05-31T18:02:30Z</time>
      </trkpt>
      <trkpt lat="49.10072" lon="-0.41667">
        <ele>21</ele>
        <time>2018-05-31T18:02:45Z</time>
      </trkpt>
      <trkpt lat="49.10024" lon="-0.41562">
        <ele>20</ele>
        <time>2018-05-31T18:03:05Z</time>
      </trkpt>
      <trkpt lat="49.10016" lon="-0.41534">
        <ele>20</ele>
        <time>2018-05-31T18:03:10Z</time>
      </trkpt>
      <trkpt lat="49.10009" lon="-0.41509">
        <ele>20</ele>
        <time>2018-05-31T18:03:15Z</time>
      </trkpt>
      <trkpt lat="49.10009" lon="-0.41484">
        <ele>21</ele>
        <time>2018-05-31T18:03:20Z</time>
      </trkpt>
      <trkpt lat="49.10017" lon="-0.41347">
        <ele>26</ele>
        <time>2018-05-31T18:03:40Z</time>
      </trkpt>
      <trkpt lat="49.09997" lon="-0.41199">
        <ele>27</ele>
        <time>2018-05-31T18:04:00Z</time>
      </trkpt>
      <trkpt lat="49.09961" lon="-0.41128">
        <ele>27</ele>
        <time>2018-05-31T18:04:10Z</time>
      </trkpt>
      <trkpt lat="49.09944" lon="-0.41115">
        <ele>27</ele>
        <time>2018-05-31T18:04:15Z</time>
      </trkpt>
      <trkpt lat="49.09917" lon="-0.41114">
        <ele>24</ele>
        <time>2018-05-31T18:04:20Z</time>
      </trkpt>
      <trkpt lat="49.09884" lon="-0.41129">
        <ele>18</ele>
        <time>2018-05-31T18:04:30Z</time>
      </trkpt>
      <trkpt lat="49.09835" lon="-0.41134">
        <ele>10</ele>
        <time>2018-05-31T18:04:55Z</time>
      </trkpt>
      <trkpt lat="49.09815" lon="-0.41097">
        <ele>9</ele>
        <time>2018-05-31T18:05:05Z</time>
      </trkpt>
      <trkpt lat="49.09817" lon="-0.41063">
        <ele>11</ele>
        <time>2018-05-31T18:05:10Z</time>
      </trkpt>
      <trkpt lat="49.09841" lon="-0.40943">
        <ele>22</ele>
        <time>2018-05-31T18:05:30Z</time>
      </trkpt>
      <trkpt lat="49.09841" lon="-0.40913">
        <ele>22</ele>
        <time>2018-05-31T18:05:35Z</time>
      </trkpt>
      <trkpt lat="49.09835" lon="-0.40856">
        <ele>20</ele>
        <time>2018-05-31T18:05:45Z</time>
      </trkpt>
      <trkpt lat="49.09839" lon="-0.4083">
        <ele>20</ele>
        <time>2018-05-31T18:05:50Z</time>
      </trkpt>
      <trkpt lat="49.09846" lon="-0.40807">
        <ele>20</ele>
        <time>2018-05-31T18:05:55Z</time>
      </trkpt>
      <trkpt lat="49.0987" lon="-0.40776">
        <ele>24</ele>
        <time>2018-05-31T18:06:05Z</time>
      </trkpt>
      <trkpt lat="49.09884" lon="-0.40776">
        <ele>26</ele>
        <time>2018-05-31T18:06:10Z</time>
      </trkpt>
      <trkpt lat="49.09927" lon="-0.40796">
        <ele>30</ele>
        <time>2018-05-31T18:06:25Z</time>
      </trkpt>
      <trkpt lat="49.0996" lon="-0.40807">
        <ele>30</ele>
        <time>2018-05-31T18:06:35Z</time>
      </trkpt>
      <trkpt lat="49.09978" lon="-0.40809">
        <ele>30</ele>
        <time>2018-05-31T18:06:40Z</time>
      </trkpt>
      <trkpt lat="49.1001" lon="-0.40809">
        <ele>32</ele>
        <time>2018-05-31T18:06:50Z</time>
      </trkpt>
      <trkpt lat="49.10061" lon="-0.40797">
        <ele>37</ele>
        <time>2018-05-31T18:07:05Z</time>
      </trkpt>
      <trkpt lat="49.10076" lon="-0.40789">
        <ele>39</ele>
        <time>2018-05-31T18:07:10Z</time>
      </trkpt>
      <trkpt lat="49.10104" lon="-0.40764">
        <ele>41</ele>
        <time>2018-05-31T18:07:20Z</time>
      </trkpt>
      <trkpt lat="49.10143" lon="-0.40726">
        <ele>45</ele>
        <time>2018-05-31T18:07:35Z</time>
      </trkpt>
      <trkpt lat="49.10172" lon="-0.40712">
        <ele>46</ele>
        <time>2018-05-31T18:07:45Z</time>
      </trkpt>
      <trkpt lat="49.10177" lon="-0.40696">
        <ele>48</ele>
        <time>2018-05-31T18:07:50Z</time>
      </trkpt>
      <trkpt lat="49.10158" lon="-0.40608">
        <ele>51</ele>
        <time>2018-05-31T18:08:10Z</time>
      </trkpt>
      <trkpt lat="49.10158" lon="-0.40582">
        <ele>52</ele>
        <time>2018-05-31T18:08:15Z</time>
      </trkpt>
      <trkpt lat="49.10164" lon="-0.40501">
        <ele>53</ele>
        <time>2018-05-31T18:08:30Z</time>
      </trkpt>
      <trkpt lat="49.10167" lon="-0.4047">
        <ele>53</ele>
        <time>2018-05-31T18:08:35Z</time>
      </trkpt>
      <trkpt lat="49.10189" lon="-0.40363">
        <ele>52</ele>
        <time>2018-05-31T18:08:50Z</time>
      </trkpt>
      <trkpt lat="49.10202" lon="-0.40244">
        <ele>52</ele>
        <time>2018-05-31T18:09:05Z</time>
      </trkpt>
      <trkpt lat="49.10211" lon="-0.40208">
        <ele>52</ele>
        <time>2018-05-31T18:09:10Z</time>
      </trkpt>
      <trkpt lat="49.10231" lon="-0.40181">
        <ele>53</ele>
        <time>2018-05-31T18:09:15Z</time>
      </trkpt>
      <trkpt lat="49.10349" lon="-0.40106">
        <ele>52</ele>
        <time>2018-05-31T18:09:40Z</time>
      </trkpt>
      <trkpt lat="49.10361" lon="-0.40083">
        <ele>52</ele>
        <time>2018-05-31T18:09:45Z</time>
      </trkpt>
      <trkpt lat="49.10339" lon="-0.40017">
        <ele>52</ele>
        <time>2018-05-31T18:09:55Z</time>
      </trkpt>
      <trkpt lat="49.10303" lon="-0.39898">
        <ele>52</ele>
        <time>2018-05-31T18:10:10Z</time>
      </trkpt>
      <trkpt lat="49.10277" lon="-0.39809">
        <ele>52</ele>
        <time>2018-05-31T18:10:20Z</time>
      </trkpt>
      <trkpt lat="49.10264" lon="-0.39762">
        <ele>51</ele>
        <time>2018-05-31T18:10:25Z</time>
      </trkpt>
      <trkpt lat="49.10249" lon="-0.39716">
        <ele>51</ele>
        <time>2018-05-31T18:10:30Z</time>
      </trkpt>
      <trkpt lat="49.10207" lon="-0.39578">
        <ele>49</ele>
        <time>2018-05-31T18:10:45Z</time>
      </trkpt>
      <trkpt lat="49.10193" lon="-0.39532">
        <ele>49</ele>
        <time>2018-05-31T18:10:50Z</time>
      </trkpt>
      <trkpt lat="49.1018" lon="-0.39486">
        <ele>48</ele>
        <time>2018-05-31T18:10:55Z</time>
      </trkpt>
      <trkpt lat="49.10166" lon="-0.3944">
        <ele>46</ele>
        <time>2018-05-31T18:11:00Z</time>
      </trkpt>
      <trkpt lat="49.10137" lon="-0.39342">
        <ele>42</ele>
        <time>2018-05-31T18:11:10Z</time>
      </trkpt>
      <trkpt lat="49.10138" lon="-0.3931">
        <ele>41</ele>
        <time>2018-05-31T18:11:15Z</time>
      </trkpt>
      <trkpt lat="49.10191" lon="-0.39265">
        <ele>41</ele>
        <time>2018-05-31T18:11:25Z</time>
      </trkpt>
      <trkpt lat="49.10211" lon="-0.39232">
        <ele>40</ele>
        <time>2018-05-31T18:11:30Z</time>
      </trkpt>
      <trkpt lat="49.10235" lon="-0.39089">
        <ele>39</ele>
        <time>2018-05-31T18:11:45Z</time>
      </trkpt>
      <trkpt lat="49.10235" lon="-0.39045">
        <ele>37</ele>
        <time>2018-05-31T18:11:50Z</time>
      </trkpt>
      <trkpt lat="49.10219" lon="-0.38888">
        <ele>21</ele>
        <time>2018-05-31T18:12:05Z</time>
      </trkpt>
      <trkpt lat="49.10169" lon="-0.38716">
        <ele>10</ele>
        <time>2018-05-31T18:12:25Z</time>
      </trkpt>
      <trkpt lat="49.10175" lon="-0.38689">
        <ele>10</ele>
        <time>2018-05-31T18:12:30Z</time>
      </trkpt>
      <trkpt lat="49.10222" lon="-0.38644">
        <ele>10</ele>
        <time>2018-05-31T18:12:40Z</time>
      </trkpt>
      <trkpt lat="49.10276" lon="-0.38597">
        <ele>11</ele>
        <time>2018-05-31T18:12:50Z</time>
      </trkpt>
      <trkpt lat="49.10395" lon="-0.38525">
        <ele>7</ele>
        <time>2018-05-31T18:13:10Z</time>
      </trkpt>
      <trkpt lat="49.10422" lon="-0.38493">
        <ele>8</ele>
        <time>2018-05-31T18:13:15Z</time>
      </trkpt>
      <trkpt lat="49.10453" lon="-0.38476">
        <ele>11</ele>
        <time>2018-05-31T18:13:20Z</time>
      </trkpt>
      <trkpt lat="49.10521" lon="-0.38476">
        <ele>9</ele>
        <time>2018-05-31T18:13:30Z</time>
      </trkpt>
      <trkpt lat="49.10588" lon="-0.38487">
        <ele>11</ele>
        <time>2018-05-31T18:13:40Z</time>
      </trkpt>
      <trkpt lat="49.1068" lon="-0.38516">
        <ele>9</ele>
        <time>2018-05-31T18:13:55Z</time>
      </trkpt>
      <trkpt lat="49.10745" lon="-0.38552">
        <ele>10</ele>
        <time>2018-05-31T18:14:05Z</time>
      </trkpt>
      <trkpt lat="49.10811" lon="-0.38562">
        <ele>13</ele>
        <time>2018-05-31T18:14:15Z</time>
      </trkpt>
      <trkpt lat="49.10846" lon="-0.3857">
        <ele>9</ele>
        <time>2018-05-31T18:14:20Z</time>
      </trkpt>
      <trkpt lat="49.10917" lon="-0.38601">
        <ele>13</ele>
        <time>2018-05-31T18:14:30Z</time>
      </trkpt>
      <trkpt lat="49.10986" lon="-0.38621">
        <ele>14</ele>
        <time>2018-05-31T18:14:40Z</time>
      </trkpt>
      <trkpt lat="49.11053" lon="-0.38669">
        <ele>8</ele>
        <time>2018-05-31T18:14:50Z</time>
      </trkpt>
      <trkpt lat="49.11124" lon="-0.38701">
        <ele>8</ele>
        <time>2018-05-31T18:15:00Z</time>
      </trkpt>
      <trkpt lat="49.11221" lon="-0.38759">
        <ele>10</ele>
        <time>2018-05-31T18:15:15Z</time>
      </trkpt>
      <trkpt lat="49.11286" lon="-0.38806">
        <ele>9</ele>
        <time>2018-05-31T18:15:25Z</time>
      </trkpt>
      <trkpt lat="49.11345" lon="-0.38862">
        <ele>9</ele>
        <time>2018-05-31T18:15:35Z</time>
      </trkpt>
      <trkpt lat="49.11404" lon="-0.38905">
        <ele>10</ele>
        <time>2018-05-31T18:15:45Z</time>
      </trkpt>
      <trkpt lat="49.11465" lon="-0.38943">
        <ele>8</ele>
        <time>2018-05-31T18:15:55Z</time>
      </trkpt>
      <trkpt lat="49.11502" lon="-0.38974">
        <ele>7</ele>
        <time>2018-05-31T18:16:05Z</time>
      </trkpt>
      <trkpt lat="49.11577" lon="-0.3905">
        <ele>5</ele>
        <time>2018-05-31T18:16:20Z</time>
      </trkpt>
      <trkpt lat="49.11648" lon="-0.39131">
        <ele>5</ele>
        <time>2018-05-31T18:16:35Z</time>
      </trkpt>
      <trkpt lat="49.11683" lon="-0.39169">
        <ele>6</ele>
        <time>2018-05-31T18:16:45Z</time>
      </trkpt>
      <trkpt lat="49.11698" lon="-0.39182">
        <ele>8</ele>
        <time>2018-05-31T18:16:50Z</time>
      </trkpt>
      <trkpt lat="49.11733" lon="-0.39206">
        <ele>13</ele>
        <time>2018-05-31T18:17:00Z</time>
      </trkpt>
      <trkpt lat="49.11769" lon="-0.39252">
        <ele>17</ele>
        <time>2018-05-31T18:17:10Z</time>
      </trkpt>
      <trkpt lat="49.11809" lon="-0.39306">
        <ele>17</ele>
        <time>2018-05-31T18:17:20Z</time>
      </trkpt>
      <trkpt lat="49.11851" lon="-0.39359">
        <ele>16</ele>
        <time>2018-05-31T18:17:30Z</time>
      </trkpt>
      <trkpt lat="49.11908" lon="-0.39433">
        <ele>16</ele>
        <time>2018-05-31T18:17:45Z</time>
      </trkpt>
      <trkpt lat="49.11968" lon="-0.39522">
        <ele>16</ele>
        <time>2018-05-31T18:18:00Z</time>
      </trkpt>
      <trkpt lat="49.1199" lon="-0.39553">
        <ele>16</ele>
        <time>2018-05-31T18:18:05Z</time>
      </trkpt>
      <trkpt lat="49.1203" lon="-0.39619">
        <ele>15</ele>
        <time>2018-05-31T18:18:15Z</time>
      </trkpt>
      <trkpt lat="49.12074" lon="-0.39685">
        <ele>16</ele>
        <time>2018-05-31T18:18:25Z</time>
      </trkpt>
      <trkpt lat="49.12099" lon="-0.39719">
        <ele>15</ele>
        <time>2018-05-31T18:18:30Z</time>
      </trkpt>
      <trkpt lat="49.1217" lon="-0.3981">
        <ele>16</ele>
        <time>2018-05-31T18:18:45Z</time>
      </trkpt>
      <trkpt lat="49.12196" lon="-0.39842">
        <ele>15</ele>
        <time>2018-05-31T18:18:50Z</time>
      </trkpt>
      <trkpt lat="49.1222" lon="-0.39873">
        <ele>14</ele>
        <time>2018-05-31T18:18:55Z</time>
      </trkpt>
      <trkpt lat="49.123" lon="-0.39959">
        <ele>14</ele>
        <time>2018-05-31T18:19:10Z</time>
      </trkpt>
      <trkpt lat="49.12357" lon="-0.40009">
        <ele>12</ele>
        <time>2018-05-31T18:19:20Z</time>
      </trkpt>
      <trkpt lat="49.1242" lon="-0.40053">
        <ele>11</ele>
        <time>2018-05-31T18:19:30Z</time>
      </trkpt>
      <trkpt lat="49.12485" lon="-0.40094">
        <ele>12</ele>
        <time>2018-05-31T18:19:40Z</time>
      </trkpt>
      <trkpt lat="49.1261" lon="-0.40179">
        <ele>4</ele>
        <time>2018-05-31T18:20:00Z</time>
      </trkpt>
      <trkpt lat="49.12671" lon="-0.40212">
        <ele>5</ele>
        <time>2018-05-31T18:20:10Z</time>
      </trkpt>
      <trkpt lat="49.12703" lon="-0.40223">
        <ele>7</ele>
        <time>2018-05-31T18:20:15Z</time>
      </trkpt>
      <trkpt lat="49.12736" lon="-0.40222">
        <ele>9</ele>
        <time>2018-05-31T18:20:20Z</time>
      </trkpt>
      <trkpt lat="49.1288" lon="-0.40241">
        <ele>8</ele>
        <time>2018-05-31T18:20:40Z</time>
      </trkpt>
      <trkpt lat="49.12915" lon="-0.4024">
        <ele>8</ele>
        <time>2018-05-31T18:20:45Z</time>
      </trkpt>
      <trkpt lat="49.13009" lon="-0.40221">
        <ele>7</ele>
        <time>2018-05-31T18:21:00Z</time>
      </trkpt>
      <trkpt lat="49.13096" lon="-0.40186">
        <ele>8</ele>
        <time>2018-05-31T18:21:15Z</time>
      </trkpt>
      <trkpt lat="49.13124" lon="-0.40169">
        <ele>9</ele>
        <time>2018-05-31T18:21:20Z</time>
      </trkpt>
      <trkpt lat="49.13181" lon="-0.40131">
        <ele>8</ele>
        <time>2018-05-31T18:21:30Z</time>
      </trkpt>
      <trkpt lat="49.13236" lon="-0.40085">
        <ele>9</ele>
        <time>2018-05-31T18:21:40Z</time>
      </trkpt>
      <trkpt lat="49.13264" lon="-0.40057">
        <ele>8</ele>
        <time>2018-05-31T18:21:45Z</time>
      </trkpt>
      <trkpt lat="49.13324" lon="-0.39997">
        <ele>7</ele>
        <time>2018-05-31T18:21:55Z</time>
      </trkpt>
      <trkpt lat="49.13465" lon="-0.39847">
        <ele>10</ele>
        <time>2018-05-31T18:22:20Z</time>
      </trkpt>
      <trkpt lat="49.13515" lon="-0.3979">
        <ele>9</ele>
        <time>2018-05-31T18:22:30Z</time>
      </trkpt>
      <trkpt lat="49.13544" lon="-0.39761">
        <ele>8</ele>
        <time>2018-05-31T18:22:35Z</time>
      </trkpt>
      <trkpt lat="49.13608" lon="-0.39699">
        <ele>7</ele>
        <time>2018-05-31T18:22:45Z</time>
      </trkpt>
      <trkpt lat="49.13663" lon="-0.39638">
        <ele>7</ele>
        <time>2018-05-31T18:22:55Z</time>
      </trkpt>
      <trkpt lat="49.13716" lon="-0.39584">
        <ele>6</ele>
        <time>2018-05-31T18:23:05Z</time>
      </trkpt>
      <trkpt lat="49.13763" lon="-0.39531">
        <ele>7</ele>
        <time>2018-05-31T18:23:15Z</time>
      </trkpt>
      <trkpt lat="49.13787" lon="-0.39509">
        <ele>7</ele>
        <time>2018-05-31T18:23:20Z</time>
      </trkpt>
      <trkpt lat="49.1381" lon="-0.39506">
        <ele>6</ele>
        <time>2018-05-31T18:23:25Z</time>
      </trkpt>
      <trkpt lat="49.13862" lon="-0.39454">
        <ele>10</ele>
        <time>2018-05-31T18:23:35Z</time>
      </trkpt>
      <trkpt lat="49.13916" lon="-0.39399">
        <ele>6</ele>
        <time>2018-05-31T18:23:45Z</time>
      </trkpt>
      <trkpt lat="49.14038" lon="-0.39265">
        <ele>6</ele>
        <time>2018-05-31T18:24:10Z</time>
      </trkpt>
      <trkpt lat="49.14062" lon="-0.3924">
        <ele>6</ele>
        <time>2018-05-31T18:24:15Z</time>
      </trkpt>
      <trkpt lat="49.14092" lon="-0.39213">
        <ele>4</ele>
        <time>2018-05-31T18:24:20Z</time>
      </trkpt>
      <trkpt lat="49.14178" lon="-0.39124">
        <ele>4</ele>
        <time>2018-05-31T18:24:35Z</time>
      </trkpt>
      <trkpt lat="49.14292" lon="-0.39005">
        <ele>4</ele>
        <time>2018-05-31T18:24:55Z</time>
      </trkpt>
      <trkpt lat="49.14373" lon="-0.38923">
        <ele>4</ele>
        <time>2018-05-31T18:25:10Z</time>
      </trkpt>
      <trkpt lat="49.14419" lon="-0.38896">
        <ele>6</ele>
        <time>2018-05-31T18:25:20Z</time>
      </trkpt>
      <trkpt lat="49.14462" lon="-0.38841">
        <ele>5</ele>
        <time>2018-05-31T18:25:30Z</time>
      </trkpt>
      <trkpt lat="49.14515" lon="-0.38793">
        <ele>4</ele>
        <time>2018-05-31T18:25:40Z</time>
      </trkpt>
      <trkpt lat="49.14542" lon="-0.38772">
        <ele>4</ele>
        <time>2018-05-31T18:25:45Z</time>
      </trkpt>
      <trkpt lat="49.14622" lon="-0.38705">
        <ele>4</ele>
        <time>2018-05-31T18:26:00Z</time>
      </trkpt>
      <trkpt lat="49.1468" lon="-0.38659">
        <ele>6</ele>
        <time>2018-05-31T18:26:10Z</time>
      </trkpt>
      <trkpt lat="49.14743" lon="-0.38615">
        <ele>8</ele>
        <time>2018-05-31T18:26:20Z</time>
      </trkpt>
      <trkpt lat="49.14861" lon="-0.38536">
        <ele>7</ele>
        <time>2018-05-31T18:26:40Z</time>
      </trkpt>
      <trkpt lat="49.14924" lon="-0.38497">
        <ele>4</ele>
        <time>2018-05-31T18:26:50Z</time>
      </trkpt>
      <trkpt lat="49.14957" lon="-0.38478">
        <ele>4</ele>
        <time>2018-05-31T18:26:55Z</time>
      </trkpt>
      <trkpt lat="49.15036" lon="-0.38432">
        <ele>4</ele>
        <time>2018-05-31T18:27:10Z</time>
      </trkpt>
      <trkpt lat="49.15085" lon="-0.38391">
        <ele>4</ele>
        <time>2018-05-31T18:27:20Z</time>
      </trkpt>
      <trkpt lat="49.15168" lon="-0.38337">
        <ele>7</ele>
        <time>2018-05-31T18:27:35Z</time>
      </trkpt>
      <trkpt lat="49.15205" lon="-0.38294">
        <ele>9</ele>
        <time>2018-05-31T18:27:45Z</time>
      </trkpt>
      <trkpt lat="49.15224" lon="-0.38283">
        <ele>7</ele>
        <time>2018-05-31T18:27:50Z</time>
      </trkpt>
      <trkpt lat="49.15333" lon="-0.38228">
        <ele>10</ele>
        <time>2018-05-31T18:28:10Z</time>
      </trkpt>
      <trkpt lat="49.15366" lon="-0.38207">
        <ele>6</ele>
        <time>2018-05-31T18:28:15Z</time>
      </trkpt>
      <trkpt lat="49.15428" lon="-0.38143">
        <ele>2</ele>
        <time>2018-05-31T18:28:25Z</time>
      </trkpt>
      <trkpt lat="49.15485" lon="-0.38015">
        <ele>2</ele>
        <time>2018-05-31T18:28:40Z</time>
      </trkpt>
      <trkpt lat="49.15506" lon="-0.37985">
        <ele>2</ele>
        <time>2018-05-31T18:28:45Z</time>
      </trkpt>
      <trkpt lat="49.15535" lon="-0.37995">
        <ele>2</ele>
        <time>2018-05-31T18:28:50Z</time>
      </trkpt>
      <trkpt lat="49.15594" lon="-0.38018">
        <ele>3</ele>
        <time>2018-05-31T18:29:00Z</time>
      </trkpt>
      <trkpt lat="49.15654" lon="-0.38041">
        <ele>3</ele>
        <time>2018-05-31T18:29:10Z</time>
      </trkpt>
      <trkpt lat="49.15681" lon="-0.38035">
        <ele>3</ele>
        <time>2018-05-31T18:29:15Z</time>
      </trkpt>
      <trkpt lat="49.15698" lon="-0.37996">
        <ele>4</ele>
        <time>2018-05-31T18:29:20Z</time>
      </trkpt>
      <trkpt lat="49.15739" lon="-0.37947">
        <ele>5</ele>
        <time>2018-05-31T18:29:30Z</time>
      </trkpt>
      <trkpt lat="49.15763" lon="-0.37953">
        <ele>6</ele>
        <time>2018-05-31T18:29:35Z</time>
      </trkpt>
      <trkpt lat="49.15789" lon="-0.37938">
        <ele>6</ele>
        <time>2018-05-31T18:29:40Z</time>
      </trkpt>
      <trkpt lat="49.15867" lon="-0.37888">
        <ele>5</ele>
        <time>2018-05-31T18:29:55Z</time>
      </trkpt>
      <trkpt lat="49.15978" lon="-0.37824">
        <ele>5</ele>
        <time>2018-05-31T18:30:15Z</time>
      </trkpt>
      <trkpt lat="49.16038" lon="-0.37788">
        <ele>5</ele>
        <time>2018-05-31T18:30:25Z</time>
      </trkpt>
      <trkpt lat="49.16161" lon="-0.3771">
        <ele>4</ele>
        <time>2018-05-31T18:30:45Z</time>
      </trkpt>
      <trkpt lat="49.16217" lon="-0.37672">
        <ele>5</ele>
        <time>2018-05-31T18:30:55Z</time>
      </trkpt>
      <trkpt lat="49.16304" lon="-0.37617">
        <ele>5</ele>
        <time>2018-05-31T18:31:10Z</time>
      </trkpt>
      <trkpt lat="49.16362" lon="-0.37585">
        <ele>5</ele>
        <time>2018-05-31T18:31:25Z</time>
      </trkpt>
      <trkpt lat="49.16405" lon="-0.37559">
        <ele>5</ele>
        <time>2018-05-31T18:31:35Z</time>
      </trkpt>
      <trkpt lat="49.16457" lon="-0.37524">
        <ele>5</ele>
        <time>2018-05-31T18:31:45Z</time>
      </trkpt>
      <trkpt lat="49.16568" lon="-0.37453">
        <ele>5</ele>
        <time>2018-05-31T18:32:05Z</time>
      </trkpt>
      <trkpt lat="49.16597" lon="-0.37431">
        <ele>6</ele>
        <time>2018-05-31T18:32:10Z</time>
      </trkpt>
      <trkpt lat="49.16681" lon="-0.37357">
        <ele>5</ele>
        <time>2018-05-31T18:32:25Z</time>
      </trkpt>
      <trkpt lat="49.16732" lon="-0.37298">
        <ele>5</ele>
        <time>2018-05-31T18:32:35Z</time>
      </trkpt>
      <trkpt lat="49.16779" lon="-0.37234">
        <ele>6</ele>
        <time>2018-05-31T18:32:45Z</time>
      </trkpt>
      <trkpt lat="49.16844" lon="-0.37131">
        <ele>6</ele>
        <time>2018-05-31T18:33:00Z</time>
      </trkpt>
      <trkpt lat="49.16892" lon="-0.37166">
        <ele>5</ele>
        <time>2018-05-31T18:33:10Z</time>
      </trkpt>
      <trkpt lat="49.16946" lon="-0.37176">
        <ele>6</ele>
        <time>2018-05-31T18:33:20Z</time>
      </trkpt>
      <trkpt lat="49.16951" lon="-0.3715">
        <ele>5</ele>
        <time>2018-05-31T18:33:25Z</time>
      </trkpt>
      <trkpt lat="49.16951" lon="-0.37067">
        <ele>4</ele>
        <time>2018-05-31T18:33:35Z</time>
      </trkpt>
      <trkpt lat="49.16956" lon="-0.3698">
        <ele>5</ele>
        <time>2018-05-31T18:33:45Z</time>
      </trkpt>
      <trkpt lat="49.16967" lon="-0.36889">
        <ele>5</ele>
        <time>2018-05-31T18:33:55Z</time>
      </trkpt>
      <trkpt lat="49.16982" lon="-0.36799">
        <ele>4</ele>
        <time>2018-05-31T18:34:05Z</time>
      </trkpt>
      <trkpt lat="49.17004" lon="-0.36727">
        <ele>3</ele>
        <time>2018-05-31T18:34:15Z</time>
      </trkpt>
      <trkpt lat="49.17029" lon="-0.36711">
        <ele>5</ele>
        <time>2018-05-31T18:34:25Z</time>
      </trkpt>
      <trkpt lat="49.17069" lon="-0.36705">
        <ele>4</ele>
        <time>2018-05-31T18:34:35Z</time>
      </trkpt>
      <trkpt lat="49.17092" lon="-0.36688">
        <ele>4</ele>
        <time>2018-05-31T18:34:40Z</time>
      </trkpt>
      <trkpt lat="49.17124" lon="-0.36623">
        <ele>4</ele>
        <time>2018-05-31T18:34:50Z</time>
      </trkpt>
      <trkpt lat="49.17137" lon="-0.36605">
        <ele>4</ele>
        <time>2018-05-31T18:34:55Z</time>
      </trkpt>
      <trkpt lat="49.17157" lon="-0.36553">
        <ele>5</ele>
        <time>2018-05-31T18:35:05Z</time>
      </trkpt>
      <trkpt lat="49.17186" lon="-0.36507">
        <ele>5</ele>
        <time>2018-05-31T18:35:15Z</time>
      </trkpt>
      <trkpt lat="49.17244" lon="-0.36387">
        <ele>5</ele>
        <time>2018-05-31T18:35:35Z</time>
      </trkpt>
      <trkpt lat="49.17263" lon="-0.36356">
        <ele>5</ele>
        <time>2018-05-31T18:35:40Z</time>
      </trkpt>
      <trkpt lat="49.17332" lon="-0.3624">
        <ele>5</ele>
        <time>2018-05-31T18:36:00Z</time>
      </trkpt>
      <trkpt lat="49.17399" lon="-0.36121">
        <ele>4</ele>
        <time>2018-05-31T18:36:20Z</time>
      </trkpt>
      <trkpt lat="49.17417" lon="-0.36092">
        <ele>4</ele>
        <time>2018-05-31T18:36:25Z</time>
      </trkpt>
      <trkpt lat="49.17472" lon="-0.36005">
        <ele>4</ele>
        <time>2018-05-31T18:36:40Z</time>
      </trkpt>
      <trkpt lat="49.17522" lon="-0.3594">
        <ele>5</ele>
        <time>2018-05-31T18:36:50Z</time>
      </trkpt>
      <trkpt lat="49.17558" lon="-0.35881">
        <ele>6</ele>
        <time>2018-05-31T18:37:00Z</time>
      </trkpt>
      <trkpt lat="49.17567" lon="-0.35851">
        <ele>6</ele>
        <time>2018-05-31T18:37:05Z</time>
      </trkpt>
      <trkpt lat="49.17599" lon="-0.358">
        <ele>7</ele>
        <time>2018-05-31T18:37:15Z</time>
      </trkpt>
      <trkpt lat="49.17645" lon="-0.35718">
        <ele>4</ele>
        <time>2018-05-31T18:37:30Z</time>
      </trkpt>
      <trkpt lat="49.17692" lon="-0.35627">
        <ele>4</ele>
        <time>2018-05-31T18:37:45Z</time>
      </trkpt>
      <trkpt lat="49.17721" lon="-0.35559">
        <ele>5</ele>
        <time>2018-05-31T18:37:55Z</time>
      </trkpt>
      <trkpt lat="49.17728" lon="-0.35531">
        <ele>6</ele>
        <time>2018-05-31T18:38:00Z</time>
      </trkpt>
      <trkpt lat="49.17744" lon="-0.35504">
        <ele>5</ele>
        <time>2018-05-31T18:38:05Z</time>
      </trkpt>
      <trkpt lat="49.17807" lon="-0.35372">
        <ele>4</ele>
        <time>2018-05-31T18:38:25Z</time>
      </trkpt>
      <trkpt lat="49.17816" lon="-0.35344">
        <ele>5</ele>
        <time>2018-05-31T18:38:30Z</time>
      </trkpt>
      <trkpt lat="49.17831" lon="-0.35314">
        <ele>4</ele>
        <time>2018-05-31T18:38:35Z</time>
      </trkpt>
      <trkpt lat="49.17879" lon="-0.35216">
        <ele>4</ele>
        <time>2018-05-31T18:38:50Z</time>
      </trkpt>
      <trkpt lat="49.1794" lon="-0.35076">
        <ele>5</ele>
        <time>2018-05-31T18:39:10Z</time>
      </trkpt>
      <trkpt lat="49.17956" lon="-0.35044">
        <ele>5</ele>
        <time>2018-05-31T18:39:15Z</time>
      </trkpt>
      <trkpt lat="49.17976" lon="-0.35034">
        <ele>5</ele>
        <time>2018-05-31T18:39:20Z</time>
      </trkpt>
      <trkpt lat="49.17987" lon="-0.35033">
        <ele>5</ele>
        <time>2018-05-31T18:39:25Z</time>
      </trkpt>
      <trkpt lat="49.18017" lon="-0.35039">
        <ele>5</ele>
        <time>2018-05-31T18:39:35Z</time>
      </trkpt>
      <trkpt lat="49.18033" lon="-0.35026">
        <ele>5</ele>
        <time>2018-05-31T18:39:40Z</time>
      </trkpt>
      <trkpt lat="49.18042" lon="-0.35">
        <ele>5</ele>
        <time>2018-05-31T18:39:45Z</time>
      </trkpt>
      <trkpt lat="49.18059" lon="-0.34984">
        <ele>5</ele>
        <time>2018-05-31T18:39:50Z</time>
      </trkpt>
      <trkpt lat="49.18095" lon="-0.34942">
        <ele>4</ele>
        <time>2018-05-31T18:40:00Z</time>
      </trkpt>
      <trkpt lat="49.18116" lon="-0.34954">
        <ele>4</ele>
        <time>2018-05-31T18:40:05Z</time>
      </trkpt>
      <trkpt lat="49.18188" lon="-0.35063">
        <ele>4</ele>
        <time>2018-05-31T18:40:25Z</time>
      </trkpt>
      <trkpt lat="49.1825" lon="-0.35191">
        <ele>4</ele>
        <time>2018-05-31T18:40:45Z</time>
      </trkpt>
      <trkpt lat="49.18288" lon="-0.35218">
        <ele>4</ele>
        <time>2018-05-31T18:40:55Z</time>
      </trkpt>
      <trkpt lat="49.18303" lon="-0.35245">
        <ele>4</ele>
        <time>2018-05-31T18:41:00Z</time>
      </trkpt>
      <trkpt lat="49.18325" lon="-0.35248">
        <ele>5</ele>
        <time>2018-05-31T18:41:05Z</time>
      </trkpt>
      <trkpt lat="49.18386" lon="-0.35167">
        <ele>4</ele>
        <time>2018-05-31T18:41:20Z</time>
      </trkpt>
      <trkpt lat="49.18404" lon="-0.35133">
        <ele>4</ele>
        <time>2018-05-31T18:41:25Z</time>
      </trkpt>
      <trkpt lat="49.18418" lon="-0.35096">
        <ele>4</ele>
        <time>2018-05-31T18:41:30Z</time>
      </trkpt>
      <trkpt lat="49.1844" lon="-0.35015">
        <ele>4</ele>
        <time>2018-05-31T18:41:40Z</time>
      </trkpt>
      <trkpt lat="49.18446" lon="-0.34974">
        <ele>4</ele>
        <time>2018-05-31T18:41:45Z</time>
      </trkpt>
      <trkpt lat="49.18449" lon="-0.34935">
        <ele>4</ele>
        <time>2018-05-31T18:41:50Z</time>
      </trkpt>
      <trkpt lat="49.18451" lon="-0.34772">
        <ele>4</ele>
        <time>2018-05-31T18:42:10Z</time>
      </trkpt>
      <trkpt lat="49.18451" lon="-0.34688">
        <ele>3</ele>
        <time>2018-05-31T18:42:20Z</time>
      </trkpt>
      <trkpt lat="49.1845" lon="-0.34561">
        <ele>4</ele>
        <time>2018-05-31T18:42:35Z</time>
      </trkpt>
      <trkpt lat="49.18472" lon="-0.34509">
        <ele>3</ele>
        <time>2018-05-31T18:42:45Z</time>
      </trkpt>
      <trkpt lat="49.18496" lon="-0.34507">
        <ele>5</ele>
        <time>2018-05-31T18:42:50Z</time>
      </trkpt>
      <trkpt lat="49.18535" lon="-0.34502">
        <ele>5</ele>
        <time>2018-05-31T18:43:00Z</time>
      </trkpt>
      <trkpt lat="49.18558" lon="-0.345">
        <ele>10</ele>
        <time>2018-05-31T18:43:10Z</time>
      </trkpt>
      <trkpt lat="49.18586" lon="-0.3448">
        <ele>14</ele>
        <time>2018-05-31T18:43:25Z</time>
      </trkpt>
      <trkpt lat="49.18597" lon="-0.34476">
        <ele>15</ele>
        <time>2018-05-31T18:43:30Z</time>
      </trkpt>
      <trkpt lat="49.18609" lon="-0.34475">
        <ele>16</ele>
        <time>2018-05-31T18:43:35Z</time>
      </trkpt>
      <trkpt lat="49.18633" lon="-0.34484">
        <ele>18</ele>
        <time>2018-05-31T18:43:45Z</time>
      </trkpt>
      <trkpt lat="49.18659" lon="-0.3449">
        <ele>20</ele>
        <time>2018-05-31T18:43:55Z</time>
      </trkpt>
      <trkpt lat="49.18715" lon="-0.34499">
        <ele>22</ele>
        <time>2018-05-31T18:44:15Z</time>
      </trkpt>
      <trkpt lat="49.18731" lon="-0.34509">
        <ele>23</ele>
        <time>2018-05-31T18:44:20Z</time>
      </trkpt>
      <trkpt lat="49.18768" lon="-0.34536">
        <ele>23</ele>
        <time>2018-05-31T18:44:30Z</time>
      </trkpt>
      <trkpt lat="49.18829" lon="-0.34572">
        <ele>24</ele>
        <time>2018-05-31T18:44:45Z</time>
      </trkpt>
      <trkpt lat="49.18877" lon="-0.34589">
        <ele>24</ele>
        <time>2018-05-31T18:44:55Z</time>
      </trkpt>
      <trkpt lat="49.18926" lon="-0.34602">
        <ele>24</ele>
        <time>2018-05-31T18:45:15Z</time>
      </trkpt>
      <trkpt lat="49.18953" lon="-0.34582">
        <ele>24</ele>
        <time>2018-05-31T18:45:25Z</time>
      </trkpt>
      <trkpt lat="49.19013" lon="-0.3464">
        <ele>26</ele>
        <time>2018-05-31T18:45:40Z</time>
      </trkpt>
      <trkpt lat="49.19092" lon="-0.34731">
        <ele>28</ele>
        <time>2018-05-31T18:46:00Z</time>
      </trkpt>
      <trkpt lat="49.19114" lon="-0.34751">
        <ele>28</ele>
        <time>2018-05-31T18:46:05Z</time>
      </trkpt>
      <trkpt lat="49.19163" lon="-0.3478">
        <ele>28</ele>
        <time>2018-05-31T18:46:15Z</time>
      </trkpt>
      <trkpt lat="49.19218" lon="-0.34795">
        <ele>30</ele>
        <time>2018-05-31T18:46:25Z</time>
      </trkpt>
      <trkpt lat="49.19246" lon="-0.34798">
        <ele>30</ele>
        <time>2018-05-31T18:46:30Z</time>
      </trkpt>
      <trkpt lat="49.19337" lon="-0.3479">
        <ele>32</ele>
        <time>2018-05-31T18:46:50Z</time>
      </trkpt>
      <trkpt lat="49.19362" lon="-0.34792">
        <ele>32</ele>
        <time>2018-05-31T18:47:00Z</time>
      </trkpt>
      <trkpt lat="49.19365" lon="-0.3482">
        <ele>33</ele>
        <time>2018-05-31T18:47:05Z</time>
      </trkpt>
      <trkpt lat="49.19362" lon="-0.34975">
        <ele>33</ele>
        <time>2018-05-31T18:47:25Z</time>
      </trkpt>
      <trkpt lat="49.19356" lon="-0.35068">
        <ele>33</ele>
        <time>2018-05-31T18:47:35Z</time>
      </trkpt>
      <trkpt lat="49.1932" lon="-0.35214">
        <ele>32</ele>
        <time>2018-05-31T18:47:50Z</time>
      </trkpt>
      <trkpt lat="49.19309" lon="-0.35265">
        <ele>31</ele>
        <time>2018-05-31T18:47:55Z</time>
      </trkpt>
      <trkpt lat="49.19318" lon="-0.35291">
        <ele>31</ele>
        <time>2018-05-31T18:48:00Z</time>
      </trkpt>
      <trkpt lat="49.19327" lon="-0.35299">
        <ele>31</ele>
        <time>2018-05-31T18:48:09Z</time>
      </trkpt>
    </trkseg>
  </trk>
</gpx>